<?xml version="1.0" encoding="UTF-8" standalone="no" ?>
<gpx xmlns="http://www.topografix.com/GPX/1/1" xmlns:xsi="http://www.w3.org/2001/XMLSchema-instance" xsi:schemaLocation="http://www.topografix.com/GPX/1/1 http://www.topografix.com/GPX/1/1/gpx.xsd" version="1.1" creator="VisuGPX - https://www.visugpx.com">
  <metadata>
    <name>Balade La Bourgonce</name>
    <desc><![CDATA[Merci à Betty pour la Balade organisée pour e&s de Ste Marguerite.]]></desc>
  </metadata>
  <trk>
    <name><![CDATA[2018-02-05 17:19:55]]></name>
    <trkseg>
      <trkpt lat="48.30351" lon="6.80117">
        <ele>417.83</ele>
        <time>2018-02-05T12:58:06Z</time>
      </trkpt>
      <trkpt lat="48.30351" lon="6.80111">
        <ele>414.95</ele>
        <time>2018-02-05T12:58:29Z</time>
      </trkpt>
      <trkpt lat="48.30351" lon="6.80102">
        <ele>412.54</ele>
        <time>2018-02-05T12:58:43Z</time>
      </trkpt>
      <trkpt lat="48.30349" lon="6.80097">
        <ele>411.1</ele>
        <time>2018-02-05T12:58:55Z</time>
      </trkpt>
      <trkpt lat="48.30348" lon="6.8009">
        <ele>409.66</ele>
        <time>2018-02-05T12:59:08Z</time>
      </trkpt>
      <trkpt lat="48.30348" lon="6.80088">
        <ele>409.66</ele>
        <time>2018-02-05T12:59:23Z</time>
      </trkpt>
      <trkpt lat="48.30347" lon="6.80079">
        <ele>408.7</ele>
        <time>2018-02-05T12:59:36Z</time>
      </trkpt>
      <trkpt lat="48.30345" lon="6.80075">
        <ele>409.66</ele>
        <time>2018-02-05T12:59:50Z</time>
      </trkpt>
      <trkpt lat="48.30345" lon="6.80076">
        <ele>407.74</ele>
        <time>2018-02-05T13:00:04Z</time>
      </trkpt>
      <trkpt lat="48.30345" lon="6.8007">
        <ele>408.22</ele>
        <time>2018-02-05T13:00:28Z</time>
      </trkpt>
      <trkpt lat="48.30347" lon="6.80076">
        <ele>406.29</ele>
        <time>2018-02-05T13:00:48Z</time>
      </trkpt>
      <trkpt lat="48.30347" lon="6.80075">
        <ele>406.29</ele>
        <time>2018-02-05T13:01:09Z</time>
      </trkpt>
      <trkpt lat="48.30347" lon="6.80073">
        <ele>407.26</ele>
        <time>2018-02-05T13:01:32Z</time>
      </trkpt>
      <trkpt lat="48.30348" lon="6.80071">
        <ele>409.18</ele>
        <time>2018-02-05T13:01:59Z</time>
      </trkpt>
      <trkpt lat="48.30349" lon="6.80061">
        <ele>407.74</ele>
        <time>2018-02-05T13:02:10Z</time>
      </trkpt>
      <trkpt lat="48.30348" lon="6.8006">
        <ele>407.74</ele>
        <time>2018-02-05T13:02:11Z</time>
      </trkpt>
      <trkpt lat="48.30346" lon="6.80054">
        <ele>408.22</ele>
        <time>2018-02-05T13:02:22Z</time>
      </trkpt>
      <trkpt lat="48.30345" lon="6.80048">
        <ele>406.77</ele>
        <time>2018-02-05T13:02:36Z</time>
      </trkpt>
      <trkpt lat="48.30343" lon="6.80046">
        <ele>406.29</ele>
        <time>2018-02-05T13:02:47Z</time>
      </trkpt>
      <trkpt lat="48.30341" lon="6.8004">
        <ele>406.77</ele>
        <time>2018-02-05T13:03:02Z</time>
      </trkpt>
      <trkpt lat="48.3034" lon="6.80037">
        <ele>407.74</ele>
        <time>2018-02-05T13:03:15Z</time>
      </trkpt>
      <trkpt lat="48.30337" lon="6.80033">
        <ele>407.74</ele>
        <time>2018-02-05T13:03:28Z</time>
      </trkpt>
      <trkpt lat="48.30335" lon="6.80026">
        <ele>407.26</ele>
        <time>2018-02-05T13:03:40Z</time>
      </trkpt>
      <trkpt lat="48.3033" lon="6.80011">
        <ele>403.89</ele>
        <time>2018-02-05T13:03:57Z</time>
      </trkpt>
      <trkpt lat="48.30323" lon="6.79993">
        <ele>402.45</ele>
        <time>2018-02-05T13:04:12Z</time>
      </trkpt>
      <trkpt lat="48.30322" lon="6.79987">
        <ele>401.49</ele>
        <time>2018-02-05T13:04:16Z</time>
      </trkpt>
      <trkpt lat="48.30319" lon="6.79978">
        <ele>402.93</ele>
        <time>2018-02-05T13:04:21Z</time>
      </trkpt>
      <trkpt lat="48.30316" lon="6.79966">
        <ele>403.89</ele>
        <time>2018-02-05T13:04:28Z</time>
      </trkpt>
      <trkpt lat="48.30311" lon="6.79946">
        <ele>403.89</ele>
        <time>2018-02-05T13:04:41Z</time>
      </trkpt>
      <trkpt lat="48.30309" lon="6.79936">
        <ele>402.93</ele>
        <time>2018-02-05T13:04:48Z</time>
      </trkpt>
      <trkpt lat="48.30308" lon="6.79912">
        <ele>401.01</ele>
        <time>2018-02-05T13:05:02Z</time>
      </trkpt>
      <trkpt lat="48.30306" lon="6.79894">
        <ele>402.93</ele>
        <time>2018-02-05T13:05:12Z</time>
      </trkpt>
      <trkpt lat="48.30305" lon="6.79868">
        <ele>405.33</ele>
        <time>2018-02-05T13:05:26Z</time>
      </trkpt>
      <trkpt lat="48.30305" lon="6.79863">
        <ele>404.85</ele>
        <time>2018-02-05T13:05:29Z</time>
      </trkpt>
      <trkpt lat="48.30306" lon="6.79858">
        <ele>404.85</ele>
        <time>2018-02-05T13:05:32Z</time>
      </trkpt>
      <trkpt lat="48.30308" lon="6.79847">
        <ele>403.89</ele>
        <time>2018-02-05T13:05:42Z</time>
      </trkpt>
      <trkpt lat="48.30308" lon="6.79845">
        <ele>403.41</ele>
        <time>2018-02-05T13:05:43Z</time>
      </trkpt>
      <trkpt lat="48.30307" lon="6.79839">
        <ele>403.41</ele>
        <time>2018-02-05T13:05:47Z</time>
      </trkpt>
      <trkpt lat="48.3031" lon="6.79815">
        <ele>402.93</ele>
        <time>2018-02-05T13:06:02Z</time>
      </trkpt>
      <trkpt lat="48.3031" lon="6.7981">
        <ele>402.93</ele>
        <time>2018-02-05T13:06:05Z</time>
      </trkpt>
      <trkpt lat="48.30311" lon="6.79807">
        <ele>402.93</ele>
        <time>2018-02-05T13:06:07Z</time>
      </trkpt>
      <trkpt lat="48.3031" lon="6.798">
        <ele>402.93</ele>
        <time>2018-02-05T13:06:11Z</time>
      </trkpt>
      <trkpt lat="48.3031" lon="6.79794">
        <ele>403.89</ele>
        <time>2018-02-05T13:06:14Z</time>
      </trkpt>
      <trkpt lat="48.30309" lon="6.79786">
        <ele>405.33</ele>
        <time>2018-02-05T13:06:18Z</time>
      </trkpt>
      <trkpt lat="48.3031" lon="6.79779">
        <ele>406.29</ele>
        <time>2018-02-05T13:06:22Z</time>
      </trkpt>
      <trkpt lat="48.30309" lon="6.79774">
        <ele>406.29</ele>
        <time>2018-02-05T13:06:25Z</time>
      </trkpt>
      <trkpt lat="48.30309" lon="6.79763">
        <ele>405.33</ele>
        <time>2018-02-05T13:06:32Z</time>
      </trkpt>
      <trkpt lat="48.3031" lon="6.7976">
        <ele>404.85</ele>
        <time>2018-02-05T13:06:34Z</time>
      </trkpt>
      <trkpt lat="48.3031" lon="6.79757">
        <ele>404.85</ele>
        <time>2018-02-05T13:06:36Z</time>
      </trkpt>
      <trkpt lat="48.30308" lon="6.79752">
        <ele>405.33</ele>
        <time>2018-02-05T13:06:39Z</time>
      </trkpt>
      <trkpt lat="48.30305" lon="6.79739">
        <ele>406.77</ele>
        <time>2018-02-05T13:06:47Z</time>
      </trkpt>
      <trkpt lat="48.30303" lon="6.79716">
        <ele>407.74</ele>
        <time>2018-02-05T13:07:01Z</time>
      </trkpt>
      <trkpt lat="48.303" lon="6.79701">
        <ele>407.74</ele>
        <time>2018-02-05T13:07:10Z</time>
      </trkpt>
      <trkpt lat="48.30293" lon="6.79677">
        <ele>408.7</ele>
        <time>2018-02-05T13:07:25Z</time>
      </trkpt>
      <trkpt lat="48.30292" lon="6.79672">
        <ele>407.74</ele>
        <time>2018-02-05T13:07:28Z</time>
      </trkpt>
      <trkpt lat="48.30291" lon="6.79665">
        <ele>406.29</ele>
        <time>2018-02-05T13:07:33Z</time>
      </trkpt>
      <trkpt lat="48.30291" lon="6.79661">
        <ele>406.29</ele>
        <time>2018-02-05T13:07:35Z</time>
      </trkpt>
      <trkpt lat="48.30288" lon="6.79642">
        <ele>405.81</ele>
        <time>2018-02-05T13:07:46Z</time>
      </trkpt>
      <trkpt lat="48.30286" lon="6.79623">
        <ele>405.33</ele>
        <time>2018-02-05T13:07:58Z</time>
      </trkpt>
      <trkpt lat="48.30285" lon="6.79622">
        <ele>405.33</ele>
        <time>2018-02-05T13:07:59Z</time>
      </trkpt>
      <trkpt lat="48.30283" lon="6.79615">
        <ele>405.33</ele>
        <time>2018-02-05T13:08:04Z</time>
      </trkpt>
      <trkpt lat="48.30282" lon="6.79606">
        <ele>405.81</ele>
        <time>2018-02-05T13:08:08Z</time>
      </trkpt>
      <trkpt lat="48.30278" lon="6.79591">
        <ele>406.29</ele>
        <time>2018-02-05T13:08:17Z</time>
      </trkpt>
      <trkpt lat="48.30277" lon="6.79588">
        <ele>406.29</ele>
        <time>2018-02-05T13:08:19Z</time>
      </trkpt>
      <trkpt lat="48.30277" lon="6.79581">
        <ele>406.77</ele>
        <time>2018-02-05T13:08:22Z</time>
      </trkpt>
      <trkpt lat="48.30271" lon="6.79559">
        <ele>410.62</ele>
        <time>2018-02-05T13:08:33Z</time>
      </trkpt>
      <trkpt lat="48.3027" lon="6.79552">
        <ele>410.14</ele>
        <time>2018-02-05T13:08:37Z</time>
      </trkpt>
      <trkpt lat="48.30267" lon="6.79542">
        <ele>410.62</ele>
        <time>2018-02-05T13:08:43Z</time>
      </trkpt>
      <trkpt lat="48.30266" lon="6.7953">
        <ele>410.62</ele>
        <time>2018-02-05T13:08:50Z</time>
      </trkpt>
      <trkpt lat="48.30264" lon="6.79515">
        <ele>407.74</ele>
        <time>2018-02-05T13:09:01Z</time>
      </trkpt>
      <trkpt lat="48.30263" lon="6.7951">
        <ele>407.26</ele>
        <time>2018-02-05T13:09:04Z</time>
      </trkpt>
      <trkpt lat="48.30262" lon="6.79503">
        <ele>407.26</ele>
        <time>2018-02-05T13:09:08Z</time>
      </trkpt>
      <trkpt lat="48.30259" lon="6.79495">
        <ele>407.26</ele>
        <time>2018-02-05T13:09:13Z</time>
      </trkpt>
      <trkpt lat="48.3026" lon="6.79491">
        <ele>407.74</ele>
        <time>2018-02-05T13:09:15Z</time>
      </trkpt>
      <trkpt lat="48.3026" lon="6.79481">
        <ele>407.74</ele>
        <time>2018-02-05T13:09:22Z</time>
      </trkpt>
      <trkpt lat="48.30261" lon="6.79479">
        <ele>407.74</ele>
        <time>2018-02-05T13:09:23Z</time>
      </trkpt>
      <trkpt lat="48.30259" lon="6.79476">
        <ele>407.74</ele>
        <time>2018-02-05T13:09:24Z</time>
      </trkpt>
      <trkpt lat="48.30259" lon="6.79472">
        <ele>407.26</ele>
        <time>2018-02-05T13:09:27Z</time>
      </trkpt>
      <trkpt lat="48.3026" lon="6.79461">
        <ele>407.74</ele>
        <time>2018-02-05T13:09:32Z</time>
      </trkpt>
      <trkpt lat="48.30261" lon="6.79448">
        <ele>408.22</ele>
        <time>2018-02-05T13:09:39Z</time>
      </trkpt>
      <trkpt lat="48.30262" lon="6.79444">
        <ele>408.22</ele>
        <time>2018-02-05T13:09:41Z</time>
      </trkpt>
      <trkpt lat="48.30262" lon="6.79438">
        <ele>408.7</ele>
        <time>2018-02-05T13:09:45Z</time>
      </trkpt>
      <trkpt lat="48.30262" lon="6.79422">
        <ele>410.14</ele>
        <time>2018-02-05T13:09:53Z</time>
      </trkpt>
      <trkpt lat="48.30261" lon="6.79416">
        <ele>410.62</ele>
        <time>2018-02-05T13:09:58Z</time>
      </trkpt>
      <trkpt lat="48.30262" lon="6.7941">
        <ele>410.62</ele>
        <time>2018-02-05T13:10:01Z</time>
      </trkpt>
      <trkpt lat="48.30262" lon="6.79401">
        <ele>410.62</ele>
        <time>2018-02-05T13:10:06Z</time>
      </trkpt>
      <trkpt lat="48.30265" lon="6.79383">
        <ele>411.58</ele>
        <time>2018-02-05T13:10:16Z</time>
      </trkpt>
      <trkpt lat="48.30265" lon="6.79378">
        <ele>412.54</ele>
        <time>2018-02-05T13:10:19Z</time>
      </trkpt>
      <trkpt lat="48.30268" lon="6.79367">
        <ele>413.02</ele>
        <time>2018-02-05T13:10:27Z</time>
      </trkpt>
      <trkpt lat="48.30276" lon="6.79353">
        <ele>413.5</ele>
        <time>2018-02-05T13:10:40Z</time>
      </trkpt>
      <trkpt lat="48.30278" lon="6.7935">
        <ele>413.5</ele>
        <time>2018-02-05T13:10:44Z</time>
      </trkpt>
      <trkpt lat="48.30284" lon="6.79341">
        <ele>413.02</ele>
        <time>2018-02-05T13:10:54Z</time>
      </trkpt>
      <trkpt lat="48.30286" lon="6.7934">
        <ele>413.5</ele>
        <time>2018-02-05T13:10:56Z</time>
      </trkpt>
      <trkpt lat="48.30294" lon="6.79327">
        <ele>410.62</ele>
        <time>2018-02-05T13:11:08Z</time>
      </trkpt>
      <trkpt lat="48.30296" lon="6.79324">
        <ele>411.1</ele>
        <time>2018-02-05T13:11:11Z</time>
      </trkpt>
      <trkpt lat="48.30305" lon="6.79314">
        <ele>411.58</ele>
        <time>2018-02-05T13:11:25Z</time>
      </trkpt>
      <trkpt lat="48.30316" lon="6.79299">
        <ele>409.66</ele>
        <time>2018-02-05T13:11:40Z</time>
      </trkpt>
      <trkpt lat="48.30328" lon="6.7928">
        <ele>408.7</ele>
        <time>2018-02-05T13:11:56Z</time>
      </trkpt>
      <trkpt lat="48.30338" lon="6.79264">
        <ele>410.62</ele>
        <time>2018-02-05T13:12:06Z</time>
      </trkpt>
      <trkpt lat="48.30344" lon="6.79252">
        <ele>412.54</ele>
        <time>2018-02-05T13:12:15Z</time>
      </trkpt>
      <trkpt lat="48.30346" lon="6.79249">
        <ele>413.02</ele>
        <time>2018-02-05T13:12:18Z</time>
      </trkpt>
      <trkpt lat="48.3035" lon="6.79243">
        <ele>411.58</ele>
        <time>2018-02-05T13:12:22Z</time>
      </trkpt>
      <trkpt lat="48.30361" lon="6.7923">
        <ele>408.22</ele>
        <time>2018-02-05T13:12:34Z</time>
      </trkpt>
      <trkpt lat="48.30368" lon="6.79216">
        <ele>401.01</ele>
        <time>2018-02-05T13:12:45Z</time>
      </trkpt>
      <trkpt lat="48.30377" lon="6.79188">
        <ele>389.95</ele>
        <time>2018-02-05T13:13:03Z</time>
      </trkpt>
      <trkpt lat="48.30386" lon="6.79163">
        <ele>383.22</ele>
        <time>2018-02-05T13:13:19Z</time>
      </trkpt>
      <trkpt lat="48.30391" lon="6.79157">
        <ele>380.34</ele>
        <time>2018-02-05T13:13:25Z</time>
      </trkpt>
      <trkpt lat="48.30402" lon="6.79136">
        <ele>385.15</ele>
        <time>2018-02-05T13:13:40Z</time>
      </trkpt>
      <trkpt lat="48.30408" lon="6.79125">
        <ele>387.07</ele>
        <time>2018-02-05T13:13:48Z</time>
      </trkpt>
      <trkpt lat="48.30416" lon="6.7911">
        <ele>388.51</ele>
        <time>2018-02-05T13:14:02Z</time>
      </trkpt>
      <trkpt lat="48.30423" lon="6.79096">
        <ele>391.39</ele>
        <time>2018-02-05T13:14:14Z</time>
      </trkpt>
      <trkpt lat="48.30425" lon="6.79092">
        <ele>392.36</ele>
        <time>2018-02-05T13:14:18Z</time>
      </trkpt>
      <trkpt lat="48.30436" lon="6.79076">
        <ele>394.76</ele>
        <time>2018-02-05T13:14:30Z</time>
      </trkpt>
      <trkpt lat="48.30439" lon="6.79072">
        <ele>396.68</ele>
        <time>2018-02-05T13:14:33Z</time>
      </trkpt>
      <trkpt lat="48.30442" lon="6.79069">
        <ele>397.16</ele>
        <time>2018-02-05T13:14:36Z</time>
      </trkpt>
      <trkpt lat="48.30451" lon="6.7906">
        <ele>395.72</ele>
        <time>2018-02-05T13:14:48Z</time>
      </trkpt>
      <trkpt lat="48.30456" lon="6.79051">
        <ele>398.12</ele>
        <time>2018-02-05T13:14:56Z</time>
      </trkpt>
      <trkpt lat="48.30459" lon="6.79049">
        <ele>399.08</ele>
        <time>2018-02-05T13:14:59Z</time>
      </trkpt>
      <trkpt lat="48.30463" lon="6.79042">
        <ele>399.57</ele>
        <time>2018-02-05T13:15:06Z</time>
      </trkpt>
      <trkpt lat="48.30467" lon="6.79036">
        <ele>400.53</ele>
        <time>2018-02-05T13:15:10Z</time>
      </trkpt>
      <trkpt lat="48.30472" lon="6.7903">
        <ele>401.01</ele>
        <time>2018-02-05T13:15:14Z</time>
      </trkpt>
      <trkpt lat="48.30475" lon="6.79028">
        <ele>401.01</ele>
        <time>2018-02-05T13:15:16Z</time>
      </trkpt>
      <trkpt lat="48.30482" lon="6.79022">
        <ele>401.01</ele>
        <time>2018-02-05T13:15:22Z</time>
      </trkpt>
      <trkpt lat="48.30487" lon="6.79017">
        <ele>401.97</ele>
        <time>2018-02-05T13:15:27Z</time>
      </trkpt>
      <trkpt lat="48.30499" lon="6.79017">
        <ele>403.41</ele>
        <time>2018-02-05T13:15:37Z</time>
      </trkpt>
      <trkpt lat="48.30499" lon="6.79019">
        <ele>403.41</ele>
        <time>2018-02-05T13:15:39Z</time>
      </trkpt>
      <trkpt lat="48.30505" lon="6.7903">
        <ele>404.37</ele>
        <time>2018-02-05T13:15:48Z</time>
      </trkpt>
      <trkpt lat="48.30506" lon="6.79044">
        <ele>405.81</ele>
        <time>2018-02-05T13:15:58Z</time>
      </trkpt>
      <trkpt lat="48.30507" lon="6.79047">
        <ele>405.81</ele>
        <time>2018-02-05T13:16:00Z</time>
      </trkpt>
      <trkpt lat="48.30507" lon="6.79052">
        <ele>406.29</ele>
        <time>2018-02-05T13:16:04Z</time>
      </trkpt>
      <trkpt lat="48.30506" lon="6.79057">
        <ele>406.77</ele>
        <time>2018-02-05T13:16:07Z</time>
      </trkpt>
      <trkpt lat="48.30506" lon="6.79062">
        <ele>406.77</ele>
        <time>2018-02-05T13:16:10Z</time>
      </trkpt>
      <trkpt lat="48.30505" lon="6.79069">
        <ele>407.26</ele>
        <time>2018-02-05T13:16:13Z</time>
      </trkpt>
      <trkpt lat="48.30506" lon="6.79084">
        <ele>406.77</ele>
        <time>2018-02-05T13:16:24Z</time>
      </trkpt>
      <trkpt lat="48.30507" lon="6.79104">
        <ele>406.77</ele>
        <time>2018-02-05T13:16:36Z</time>
      </trkpt>
      <trkpt lat="48.30505" lon="6.79113">
        <ele>406.77</ele>
        <time>2018-02-05T13:16:41Z</time>
      </trkpt>
      <trkpt lat="48.3051" lon="6.79135">
        <ele>406.29</ele>
        <time>2018-02-05T13:16:53Z</time>
      </trkpt>
      <trkpt lat="48.30511" lon="6.79138">
        <ele>406.29</ele>
        <time>2018-02-05T13:16:55Z</time>
      </trkpt>
      <trkpt lat="48.30518" lon="6.79146">
        <ele>406.77</ele>
        <time>2018-02-05T13:17:00Z</time>
      </trkpt>
      <trkpt lat="48.3052" lon="6.79149">
        <ele>406.77</ele>
        <time>2018-02-05T13:17:02Z</time>
      </trkpt>
      <trkpt lat="48.3052" lon="6.79151">
        <ele>406.77</ele>
        <time>2018-02-05T13:17:03Z</time>
      </trkpt>
      <trkpt lat="48.30519" lon="6.79153">
        <ele>406.29</ele>
        <time>2018-02-05T13:17:04Z</time>
      </trkpt>
      <trkpt lat="48.30518" lon="6.79173">
        <ele>405.81</ele>
        <time>2018-02-05T13:17:16Z</time>
      </trkpt>
      <trkpt lat="48.30518" lon="6.79175">
        <ele>405.81</ele>
        <time>2018-02-05T13:17:18Z</time>
      </trkpt>
      <trkpt lat="48.30519" lon="6.79187">
        <ele>406.29</ele>
        <time>2018-02-05T13:17:24Z</time>
      </trkpt>
      <trkpt lat="48.30519" lon="6.79201">
        <ele>404.85</ele>
        <time>2018-02-05T13:17:31Z</time>
      </trkpt>
      <trkpt lat="48.30519" lon="6.79208">
        <ele>404.37</ele>
        <time>2018-02-05T13:17:35Z</time>
      </trkpt>
      <trkpt lat="48.30522" lon="6.79222">
        <ele>404.37</ele>
        <time>2018-02-05T13:17:45Z</time>
      </trkpt>
      <trkpt lat="48.30524" lon="6.7924">
        <ele>403.41</ele>
        <time>2018-02-05T13:17:56Z</time>
      </trkpt>
      <trkpt lat="48.30525" lon="6.7925">
        <ele>402.93</ele>
        <time>2018-02-05T13:18:02Z</time>
      </trkpt>
      <trkpt lat="48.30534" lon="6.79268">
        <ele>402.45</ele>
        <time>2018-02-05T13:18:13Z</time>
      </trkpt>
      <trkpt lat="48.30535" lon="6.79271">
        <ele>402.45</ele>
        <time>2018-02-05T13:18:15Z</time>
      </trkpt>
      <trkpt lat="48.30535" lon="6.7928">
        <ele>402.45</ele>
        <time>2018-02-05T13:18:19Z</time>
      </trkpt>
      <trkpt lat="48.30535" lon="6.79282">
        <ele>402.45</ele>
        <time>2018-02-05T13:18:20Z</time>
      </trkpt>
      <trkpt lat="48.30535" lon="6.79289">
        <ele>401.97</ele>
        <time>2018-02-05T13:18:23Z</time>
      </trkpt>
      <trkpt lat="48.30535" lon="6.79291">
        <ele>402.45</ele>
        <time>2018-02-05T13:18:24Z</time>
      </trkpt>
      <trkpt lat="48.30536" lon="6.79292">
        <ele>401.97</ele>
        <time>2018-02-05T13:18:25Z</time>
      </trkpt>
      <trkpt lat="48.30536" lon="6.79294">
        <ele>401.97</ele>
        <time>2018-02-05T13:18:26Z</time>
      </trkpt>
      <trkpt lat="48.30536" lon="6.79298">
        <ele>401.97</ele>
        <time>2018-02-05T13:18:28Z</time>
      </trkpt>
      <trkpt lat="48.30538" lon="6.79311">
        <ele>401.97</ele>
        <time>2018-02-05T13:18:35Z</time>
      </trkpt>
      <trkpt lat="48.30539" lon="6.79312">
        <ele>401.49</ele>
        <time>2018-02-05T13:18:36Z</time>
      </trkpt>
      <trkpt lat="48.30544" lon="6.7932">
        <ele>401.01</ele>
        <time>2018-02-05T13:18:42Z</time>
      </trkpt>
      <trkpt lat="48.30544" lon="6.79322">
        <ele>401.01</ele>
        <time>2018-02-05T13:18:43Z</time>
      </trkpt>
      <trkpt lat="48.30549" lon="6.79337">
        <ele>399.57</ele>
        <time>2018-02-05T13:18:55Z</time>
      </trkpt>
      <trkpt lat="48.3055" lon="6.79353">
        <ele>399.08</ele>
        <time>2018-02-05T13:19:04Z</time>
      </trkpt>
      <trkpt lat="48.30551" lon="6.79355">
        <ele>399.08</ele>
        <time>2018-02-05T13:19:05Z</time>
      </trkpt>
      <trkpt lat="48.30563" lon="6.79364">
        <ele>399.57</ele>
        <time>2018-02-05T13:19:12Z</time>
      </trkpt>
      <trkpt lat="48.30563" lon="6.79366">
        <ele>399.57</ele>
        <time>2018-02-05T13:19:13Z</time>
      </trkpt>
      <trkpt lat="48.30561" lon="6.79377">
        <ele>399.08</ele>
        <time>2018-02-05T13:19:18Z</time>
      </trkpt>
      <trkpt lat="48.30561" lon="6.7938">
        <ele>399.08</ele>
        <time>2018-02-05T13:19:19Z</time>
      </trkpt>
      <trkpt lat="48.30562" lon="6.79392">
        <ele>398.6</ele>
        <time>2018-02-05T13:19:27Z</time>
      </trkpt>
      <trkpt lat="48.30563" lon="6.79393">
        <ele>399.08</ele>
        <time>2018-02-05T13:19:28Z</time>
      </trkpt>
      <trkpt lat="48.30565" lon="6.79395">
        <ele>399.08</ele>
        <time>2018-02-05T13:19:30Z</time>
      </trkpt>
      <trkpt lat="48.30567" lon="6.794">
        <ele>398.6</ele>
        <time>2018-02-05T13:19:34Z</time>
      </trkpt>
      <trkpt lat="48.30568" lon="6.79412">
        <ele>398.6</ele>
        <time>2018-02-05T13:19:43Z</time>
      </trkpt>
      <trkpt lat="48.30572" lon="6.79431">
        <ele>399.08</ele>
        <time>2018-02-05T13:19:56Z</time>
      </trkpt>
      <trkpt lat="48.30571" lon="6.7944">
        <ele>399.08</ele>
        <time>2018-02-05T13:20:01Z</time>
      </trkpt>
      <trkpt lat="48.30572" lon="6.79446">
        <ele>399.57</ele>
        <time>2018-02-05T13:20:04Z</time>
      </trkpt>
      <trkpt lat="48.30574" lon="6.7945">
        <ele>399.08</ele>
        <time>2018-02-05T13:20:06Z</time>
      </trkpt>
      <trkpt lat="48.30577" lon="6.79464">
        <ele>399.08</ele>
        <time>2018-02-05T13:20:15Z</time>
      </trkpt>
      <trkpt lat="48.30578" lon="6.79479">
        <ele>399.08</ele>
        <time>2018-02-05T13:20:25Z</time>
      </trkpt>
      <trkpt lat="48.30578" lon="6.79483">
        <ele>399.08</ele>
        <time>2018-02-05T13:20:27Z</time>
      </trkpt>
      <trkpt lat="48.3058" lon="6.79484">
        <ele>399.08</ele>
        <time>2018-02-05T13:20:28Z</time>
      </trkpt>
      <trkpt lat="48.3058" lon="6.79486">
        <ele>399.08</ele>
        <time>2018-02-05T13:20:29Z</time>
      </trkpt>
      <trkpt lat="48.30583" lon="6.79489">
        <ele>399.08</ele>
        <time>2018-02-05T13:20:31Z</time>
      </trkpt>
      <trkpt lat="48.30584" lon="6.79491">
        <ele>399.08</ele>
        <time>2018-02-05T13:20:32Z</time>
      </trkpt>
      <trkpt lat="48.30589" lon="6.79498">
        <ele>398.6</ele>
        <time>2018-02-05T13:20:36Z</time>
      </trkpt>
      <trkpt lat="48.30592" lon="6.795">
        <ele>398.6</ele>
        <time>2018-02-05T13:20:38Z</time>
      </trkpt>
      <trkpt lat="48.30593" lon="6.79502">
        <ele>398.6</ele>
        <time>2018-02-05T13:20:39Z</time>
      </trkpt>
      <trkpt lat="48.30598" lon="6.79516">
        <ele>399.08</ele>
        <time>2018-02-05T13:20:47Z</time>
      </trkpt>
      <trkpt lat="48.30601" lon="6.79522">
        <ele>399.08</ele>
        <time>2018-02-05T13:20:51Z</time>
      </trkpt>
      <trkpt lat="48.30604" lon="6.79525">
        <ele>399.08</ele>
        <time>2018-02-05T13:20:53Z</time>
      </trkpt>
      <trkpt lat="48.30605" lon="6.79527">
        <ele>399.08</ele>
        <time>2018-02-05T13:20:54Z</time>
      </trkpt>
      <trkpt lat="48.3061" lon="6.7954">
        <ele>399.08</ele>
        <time>2018-02-05T13:21:03Z</time>
      </trkpt>
      <trkpt lat="48.30612" lon="6.79544">
        <ele>399.08</ele>
        <time>2018-02-05T13:21:06Z</time>
      </trkpt>
      <trkpt lat="48.30613" lon="6.79548">
        <ele>399.08</ele>
        <time>2018-02-05T13:21:08Z</time>
      </trkpt>
      <trkpt lat="48.30613" lon="6.7955">
        <ele>399.08</ele>
        <time>2018-02-05T13:21:09Z</time>
      </trkpt>
      <trkpt lat="48.30613" lon="6.7956">
        <ele>399.08</ele>
        <time>2018-02-05T13:21:15Z</time>
      </trkpt>
      <trkpt lat="48.3062" lon="6.79569">
        <ele>399.08</ele>
        <time>2018-02-05T13:21:22Z</time>
      </trkpt>
      <trkpt lat="48.30621" lon="6.7957">
        <ele>399.08</ele>
        <time>2018-02-05T13:21:23Z</time>
      </trkpt>
      <trkpt lat="48.30621" lon="6.79572">
        <ele>399.08</ele>
        <time>2018-02-05T13:21:24Z</time>
      </trkpt>
      <trkpt lat="48.30622" lon="6.79575">
        <ele>399.08</ele>
        <time>2018-02-05T13:21:26Z</time>
      </trkpt>
      <trkpt lat="48.30623" lon="6.7958">
        <ele>399.57</ele>
        <time>2018-02-05T13:21:29Z</time>
      </trkpt>
      <trkpt lat="48.30623" lon="6.79582">
        <ele>399.08</ele>
        <time>2018-02-05T13:21:30Z</time>
      </trkpt>
      <trkpt lat="48.30622" lon="6.79584">
        <ele>399.08</ele>
        <time>2018-02-05T13:21:32Z</time>
      </trkpt>
      <trkpt lat="48.30627" lon="6.79596">
        <ele>398.6</ele>
        <time>2018-02-05T13:21:41Z</time>
      </trkpt>
      <trkpt lat="48.30629" lon="6.79602">
        <ele>399.08</ele>
        <time>2018-02-05T13:21:46Z</time>
      </trkpt>
      <trkpt lat="48.30632" lon="6.79614">
        <ele>399.57</ele>
        <time>2018-02-05T13:21:54Z</time>
      </trkpt>
      <trkpt lat="48.30636" lon="6.79622">
        <ele>399.57</ele>
        <time>2018-02-05T13:22:01Z</time>
      </trkpt>
      <trkpt lat="48.30643" lon="6.79637">
        <ele>400.05</ele>
        <time>2018-02-05T13:22:12Z</time>
      </trkpt>
      <trkpt lat="48.30649" lon="6.79654">
        <ele>399.08</ele>
        <time>2018-02-05T13:22:23Z</time>
      </trkpt>
      <trkpt lat="48.30653" lon="6.79669">
        <ele>398.6</ele>
        <time>2018-02-05T13:22:34Z</time>
      </trkpt>
      <trkpt lat="48.30658" lon="6.79689">
        <ele>399.57</ele>
        <time>2018-02-05T13:22:46Z</time>
      </trkpt>
      <trkpt lat="48.30666" lon="6.79711">
        <ele>400.53</ele>
        <time>2018-02-05T13:22:59Z</time>
      </trkpt>
      <trkpt lat="48.30672" lon="6.79726">
        <ele>401.01</ele>
        <time>2018-02-05T13:23:10Z</time>
      </trkpt>
      <trkpt lat="48.30679" lon="6.79733">
        <ele>401.49</ele>
        <time>2018-02-05T13:23:15Z</time>
      </trkpt>
      <trkpt lat="48.30679" lon="6.79734">
        <ele>401.49</ele>
        <time>2018-02-05T13:23:16Z</time>
      </trkpt>
      <trkpt lat="48.30679" lon="6.79736">
        <ele>401.49</ele>
        <time>2018-02-05T13:23:17Z</time>
      </trkpt>
      <trkpt lat="48.3068" lon="6.79738">
        <ele>401.97</ele>
        <time>2018-02-05T13:23:18Z</time>
      </trkpt>
      <trkpt lat="48.3068" lon="6.79739">
        <ele>401.97</ele>
        <time>2018-02-05T13:23:19Z</time>
      </trkpt>
      <trkpt lat="48.30688" lon="6.79755">
        <ele>402.93</ele>
        <time>2018-02-05T13:23:30Z</time>
      </trkpt>
      <trkpt lat="48.30698" lon="6.79768">
        <ele>403.89</ele>
        <time>2018-02-05T13:23:42Z</time>
      </trkpt>
      <trkpt lat="48.30705" lon="6.79781">
        <ele>404.37</ele>
        <time>2018-02-05T13:23:52Z</time>
      </trkpt>
      <trkpt lat="48.30715" lon="6.79797">
        <ele>401.01</ele>
        <time>2018-02-05T13:24:06Z</time>
      </trkpt>
      <trkpt lat="48.30726" lon="6.79812">
        <ele>397.64</ele>
        <time>2018-02-05T13:24:19Z</time>
      </trkpt>
      <trkpt lat="48.30737" lon="6.79831">
        <ele>390.43</ele>
        <time>2018-02-05T13:24:34Z</time>
      </trkpt>
      <trkpt lat="48.30746" lon="6.79848">
        <ele>391.87</ele>
        <time>2018-02-05T13:24:47Z</time>
      </trkpt>
      <trkpt lat="48.30757" lon="6.79867">
        <ele>390.43</ele>
        <time>2018-02-05T13:24:58Z</time>
      </trkpt>
      <trkpt lat="48.30767" lon="6.79882">
        <ele>390.91</ele>
        <time>2018-02-05T13:25:12Z</time>
      </trkpt>
      <trkpt lat="48.30775" lon="6.799">
        <ele>393.32</ele>
        <time>2018-02-05T13:25:26Z</time>
      </trkpt>
      <trkpt lat="48.30788" lon="6.79916">
        <ele>394.28</ele>
        <time>2018-02-05T13:25:38Z</time>
      </trkpt>
      <trkpt lat="48.30799" lon="6.79925">
        <ele>393.8</ele>
        <time>2018-02-05T13:25:53Z</time>
      </trkpt>
      <trkpt lat="48.30799" lon="6.79931">
        <ele>401.97</ele>
        <time>2018-02-05T13:26:17Z</time>
      </trkpt>
      <trkpt lat="48.30809" lon="6.7993">
        <ele>414.95</ele>
        <time>2018-02-05T13:26:47Z</time>
      </trkpt>
      <trkpt lat="48.30808" lon="6.79927">
        <ele>418.31</ele>
        <time>2018-02-05T13:27:21Z</time>
      </trkpt>
      <trkpt lat="48.30809" lon="6.79933">
        <ele>418.31</ele>
        <time>2018-02-05T13:27:51Z</time>
      </trkpt>
      <trkpt lat="48.30818" lon="6.79925">
        <ele>417.83</ele>
        <time>2018-02-05T13:28:04Z</time>
      </trkpt>
      <trkpt lat="48.30823" lon="6.79914">
        <ele>418.31</ele>
        <time>2018-02-05T13:28:16Z</time>
      </trkpt>
      <trkpt lat="48.30829" lon="6.79903">
        <ele>418.31</ele>
        <time>2018-02-05T13:28:29Z</time>
      </trkpt>
      <trkpt lat="48.30839" lon="6.79884">
        <ele>415.43</ele>
        <time>2018-02-05T13:28:44Z</time>
      </trkpt>
      <trkpt lat="48.30843" lon="6.79871">
        <ele>414.95</ele>
        <time>2018-02-05T13:28:54Z</time>
      </trkpt>
      <trkpt lat="48.30848" lon="6.79859">
        <ele>414.47</ele>
        <time>2018-02-05T13:29:07Z</time>
      </trkpt>
      <trkpt lat="48.30854" lon="6.79844">
        <ele>414.95</ele>
        <time>2018-02-05T13:29:20Z</time>
      </trkpt>
      <trkpt lat="48.30858" lon="6.79832">
        <ele>414.47</ele>
        <time>2018-02-05T13:29:32Z</time>
      </trkpt>
      <trkpt lat="48.30862" lon="6.79824">
        <ele>414.95</ele>
        <time>2018-02-05T13:29:45Z</time>
      </trkpt>
      <trkpt lat="48.30866" lon="6.79816">
        <ele>415.43</ele>
        <time>2018-02-05T13:29:56Z</time>
      </trkpt>
      <trkpt lat="48.30869" lon="6.79811">
        <ele>413.98</ele>
        <time>2018-02-05T13:30:03Z</time>
      </trkpt>
      <trkpt lat="48.30871" lon="6.79798">
        <ele>413.98</ele>
        <time>2018-02-05T13:30:16Z</time>
      </trkpt>
      <trkpt lat="48.30877" lon="6.79782">
        <ele>413.98</ele>
        <time>2018-02-05T13:30:31Z</time>
      </trkpt>
      <trkpt lat="48.30879" lon="6.79776">
        <ele>413.98</ele>
        <time>2018-02-05T13:30:35Z</time>
      </trkpt>
      <trkpt lat="48.30884" lon="6.79753">
        <ele>414.95</ele>
        <time>2018-02-05T13:30:48Z</time>
      </trkpt>
      <trkpt lat="48.30884" lon="6.79751">
        <ele>415.43</ele>
        <time>2018-02-05T13:30:49Z</time>
      </trkpt>
      <trkpt lat="48.30886" lon="6.79746">
        <ele>415.43</ele>
        <time>2018-02-05T13:30:53Z</time>
      </trkpt>
      <trkpt lat="48.30891" lon="6.79736">
        <ele>416.39</ele>
        <time>2018-02-05T13:31:02Z</time>
      </trkpt>
      <trkpt lat="48.30893" lon="6.79733">
        <ele>416.39</ele>
        <time>2018-02-05T13:31:04Z</time>
      </trkpt>
      <trkpt lat="48.30897" lon="6.79728">
        <ele>416.39</ele>
        <time>2018-02-05T13:31:08Z</time>
      </trkpt>
      <trkpt lat="48.30907" lon="6.79707">
        <ele>417.35</ele>
        <time>2018-02-05T13:31:22Z</time>
      </trkpt>
      <trkpt lat="48.30912" lon="6.79694">
        <ele>417.83</ele>
        <time>2018-02-05T13:31:29Z</time>
      </trkpt>
      <trkpt lat="48.30913" lon="6.7969">
        <ele>417.83</ele>
        <time>2018-02-05T13:31:31Z</time>
      </trkpt>
      <trkpt lat="48.30915" lon="6.79682">
        <ele>418.31</ele>
        <time>2018-02-05T13:31:35Z</time>
      </trkpt>
      <trkpt lat="48.30917" lon="6.79679">
        <ele>418.79</ele>
        <time>2018-02-05T13:31:37Z</time>
      </trkpt>
      <trkpt lat="48.3092" lon="6.7967">
        <ele>420.71</ele>
        <time>2018-02-05T13:31:42Z</time>
      </trkpt>
      <trkpt lat="48.30921" lon="6.79668">
        <ele>421.68</ele>
        <time>2018-02-05T13:31:43Z</time>
      </trkpt>
      <trkpt lat="48.30925" lon="6.79655">
        <ele>426.48</ele>
        <time>2018-02-05T13:31:51Z</time>
      </trkpt>
      <trkpt lat="48.30928" lon="6.7965">
        <ele>426.96</ele>
        <time>2018-02-05T13:31:54Z</time>
      </trkpt>
      <trkpt lat="48.30931" lon="6.79627">
        <ele>429.37</ele>
        <time>2018-02-05T13:32:06Z</time>
      </trkpt>
      <trkpt lat="48.30932" lon="6.79621">
        <ele>430.33</ele>
        <time>2018-02-05T13:32:09Z</time>
      </trkpt>
      <trkpt lat="48.30934" lon="6.79616">
        <ele>430.81</ele>
        <time>2018-02-05T13:32:13Z</time>
      </trkpt>
      <trkpt lat="48.30933" lon="6.79611">
        <ele>430.33</ele>
        <time>2018-02-05T13:32:16Z</time>
      </trkpt>
      <trkpt lat="48.30938" lon="6.79595">
        <ele>431.29</ele>
        <time>2018-02-05T13:32:28Z</time>
      </trkpt>
      <trkpt lat="48.3094" lon="6.79586">
        <ele>431.77</ele>
        <time>2018-02-05T13:32:35Z</time>
      </trkpt>
      <trkpt lat="48.30942" lon="6.79583">
        <ele>431.77</ele>
        <time>2018-02-05T13:32:37Z</time>
      </trkpt>
      <trkpt lat="48.30948" lon="6.79567">
        <ele>432.25</ele>
        <time>2018-02-05T13:32:48Z</time>
      </trkpt>
      <trkpt lat="48.30949" lon="6.79563">
        <ele>431.77</ele>
        <time>2018-02-05T13:32:50Z</time>
      </trkpt>
      <trkpt lat="48.30958" lon="6.79547">
        <ele>430.81</ele>
        <time>2018-02-05T13:33:02Z</time>
      </trkpt>
      <trkpt lat="48.30959" lon="6.79544">
        <ele>431.29</ele>
        <time>2018-02-05T13:33:04Z</time>
      </trkpt>
      <trkpt lat="48.30964" lon="6.79526">
        <ele>430.81</ele>
        <time>2018-02-05T13:33:13Z</time>
      </trkpt>
      <trkpt lat="48.3097" lon="6.79512">
        <ele>430.81</ele>
        <time>2018-02-05T13:33:25Z</time>
      </trkpt>
      <trkpt lat="48.30972" lon="6.79508">
        <ele>430.33</ele>
        <time>2018-02-05T13:33:28Z</time>
      </trkpt>
      <trkpt lat="48.30973" lon="6.79503">
        <ele>430.33</ele>
        <time>2018-02-05T13:33:30Z</time>
      </trkpt>
      <trkpt lat="48.30977" lon="6.79488">
        <ele>428.89</ele>
        <time>2018-02-05T13:33:41Z</time>
      </trkpt>
      <trkpt lat="48.30977" lon="6.79479">
        <ele>428.4</ele>
        <time>2018-02-05T13:33:47Z</time>
      </trkpt>
      <trkpt lat="48.30982" lon="6.79465">
        <ele>427.92</ele>
        <time>2018-02-05T13:33:58Z</time>
      </trkpt>
      <trkpt lat="48.30989" lon="6.79449">
        <ele>426.96</ele>
        <time>2018-02-05T13:34:09Z</time>
      </trkpt>
      <trkpt lat="48.3099" lon="6.79446">
        <ele>426.96</ele>
        <time>2018-02-05T13:34:11Z</time>
      </trkpt>
      <trkpt lat="48.30999" lon="6.79431">
        <ele>426.48</ele>
        <time>2018-02-05T13:34:23Z</time>
      </trkpt>
      <trkpt lat="48.31008" lon="6.7942">
        <ele>423.6</ele>
        <time>2018-02-05T13:34:34Z</time>
      </trkpt>
      <trkpt lat="48.31009" lon="6.79417">
        <ele>423.6</ele>
        <time>2018-02-05T13:34:39Z</time>
      </trkpt>
      <trkpt lat="48.31013" lon="6.79413">
        <ele>424.08</ele>
        <time>2018-02-05T13:34:42Z</time>
      </trkpt>
      <trkpt lat="48.31017" lon="6.79409">
        <ele>424.08</ele>
        <time>2018-02-05T13:34:46Z</time>
      </trkpt>
      <trkpt lat="48.31026" lon="6.79393">
        <ele>423.6</ele>
        <time>2018-02-05T13:34:59Z</time>
      </trkpt>
      <trkpt lat="48.3103" lon="6.79388">
        <ele>423.6</ele>
        <time>2018-02-05T13:35:04Z</time>
      </trkpt>
      <trkpt lat="48.31035" lon="6.7938">
        <ele>423.12</ele>
        <time>2018-02-05T13:35:07Z</time>
      </trkpt>
      <trkpt lat="48.3104" lon="6.79375">
        <ele>423.12</ele>
        <time>2018-02-05T13:35:12Z</time>
      </trkpt>
      <trkpt lat="48.31043" lon="6.79372">
        <ele>423.12</ele>
        <time>2018-02-05T13:35:15Z</time>
      </trkpt>
      <trkpt lat="48.31047" lon="6.79361">
        <ele>422.64</ele>
        <time>2018-02-05T13:35:25Z</time>
      </trkpt>
      <trkpt lat="48.31048" lon="6.79358">
        <ele>422.64</ele>
        <time>2018-02-05T13:35:29Z</time>
      </trkpt>
      <trkpt lat="48.31051" lon="6.79354">
        <ele>422.64</ele>
        <time>2018-02-05T13:35:34Z</time>
      </trkpt>
      <trkpt lat="48.31053" lon="6.79348">
        <ele>422.64</ele>
        <time>2018-02-05T13:35:36Z</time>
      </trkpt>
      <trkpt lat="48.31057" lon="6.79342">
        <ele>422.64</ele>
        <time>2018-02-05T13:35:41Z</time>
      </trkpt>
      <trkpt lat="48.31062" lon="6.79333">
        <ele>422.16</ele>
        <time>2018-02-05T13:35:47Z</time>
      </trkpt>
      <trkpt lat="48.31065" lon="6.7933">
        <ele>422.16</ele>
        <time>2018-02-05T13:35:50Z</time>
      </trkpt>
      <trkpt lat="48.31069" lon="6.79323">
        <ele>422.64</ele>
        <time>2018-02-05T13:35:54Z</time>
      </trkpt>
      <trkpt lat="48.31071" lon="6.79319">
        <ele>422.16</ele>
        <time>2018-02-05T13:35:58Z</time>
      </trkpt>
      <trkpt lat="48.31072" lon="6.79316">
        <ele>422.16</ele>
        <time>2018-02-05T13:36:00Z</time>
      </trkpt>
      <trkpt lat="48.31074" lon="6.79312">
        <ele>421.68</ele>
        <time>2018-02-05T13:36:03Z</time>
      </trkpt>
      <trkpt lat="48.31077" lon="6.79308">
        <ele>421.68</ele>
        <time>2018-02-05T13:36:05Z</time>
      </trkpt>
      <trkpt lat="48.31078" lon="6.79306">
        <ele>421.68</ele>
        <time>2018-02-05T13:36:06Z</time>
      </trkpt>
      <trkpt lat="48.31081" lon="6.79303">
        <ele>421.68</ele>
        <time>2018-02-05T13:36:08Z</time>
      </trkpt>
      <trkpt lat="48.31085" lon="6.79295">
        <ele>420.71</ele>
        <time>2018-02-05T13:36:16Z</time>
      </trkpt>
      <trkpt lat="48.3109" lon="6.79284">
        <ele>420.71</ele>
        <time>2018-02-05T13:36:23Z</time>
      </trkpt>
      <trkpt lat="48.31096" lon="6.79273">
        <ele>420.23</ele>
        <time>2018-02-05T13:36:31Z</time>
      </trkpt>
      <trkpt lat="48.31099" lon="6.79266">
        <ele>420.23</ele>
        <time>2018-02-05T13:36:36Z</time>
      </trkpt>
      <trkpt lat="48.31102" lon="6.79256">
        <ele>420.23</ele>
        <time>2018-02-05T13:36:42Z</time>
      </trkpt>
      <trkpt lat="48.31106" lon="6.79239">
        <ele>419.27</ele>
        <time>2018-02-05T13:36:54Z</time>
      </trkpt>
      <trkpt lat="48.31112" lon="6.7922">
        <ele>417.83</ele>
        <time>2018-02-05T13:37:08Z</time>
      </trkpt>
      <trkpt lat="48.31112" lon="6.79216">
        <ele>417.83</ele>
        <time>2018-02-05T13:37:11Z</time>
      </trkpt>
      <trkpt lat="48.31115" lon="6.792">
        <ele>416.87</ele>
        <time>2018-02-05T13:37:20Z</time>
      </trkpt>
      <trkpt lat="48.31116" lon="6.79196">
        <ele>416.87</ele>
        <time>2018-02-05T13:37:22Z</time>
      </trkpt>
      <trkpt lat="48.31124" lon="6.79176">
        <ele>417.35</ele>
        <time>2018-02-05T13:37:35Z</time>
      </trkpt>
      <trkpt lat="48.31125" lon="6.79174">
        <ele>417.35</ele>
        <time>2018-02-05T13:37:36Z</time>
      </trkpt>
      <trkpt lat="48.31134" lon="6.79162">
        <ele>417.35</ele>
        <time>2018-02-05T13:37:48Z</time>
      </trkpt>
      <trkpt lat="48.31141" lon="6.79156">
        <ele>417.35</ele>
        <time>2018-02-05T13:37:54Z</time>
      </trkpt>
      <trkpt lat="48.31153" lon="6.79153">
        <ele>417.35</ele>
        <time>2018-02-05T13:38:05Z</time>
      </trkpt>
      <trkpt lat="48.31165" lon="6.79152">
        <ele>417.35</ele>
        <time>2018-02-05T13:38:17Z</time>
      </trkpt>
      <trkpt lat="48.31171" lon="6.79152">
        <ele>417.35</ele>
        <time>2018-02-05T13:38:21Z</time>
      </trkpt>
      <trkpt lat="48.31176" lon="6.79151">
        <ele>417.35</ele>
        <time>2018-02-05T13:38:26Z</time>
      </trkpt>
      <trkpt lat="48.31183" lon="6.79151">
        <ele>417.35</ele>
        <time>2018-02-05T13:38:35Z</time>
      </trkpt>
      <trkpt lat="48.31184" lon="6.79151">
        <ele>417.35</ele>
        <time>2018-02-05T13:38:36Z</time>
      </trkpt>
      <trkpt lat="48.31193" lon="6.79152">
        <ele>417.35</ele>
        <time>2018-02-05T13:38:43Z</time>
      </trkpt>
      <trkpt lat="48.31196" lon="6.79152">
        <ele>417.35</ele>
        <time>2018-02-05T13:38:46Z</time>
      </trkpt>
      <trkpt lat="48.31202" lon="6.79154">
        <ele>416.87</ele>
        <time>2018-02-05T13:38:52Z</time>
      </trkpt>
      <trkpt lat="48.31216" lon="6.79158">
        <ele>417.35</ele>
        <time>2018-02-05T13:39:02Z</time>
      </trkpt>
      <trkpt lat="48.31219" lon="6.79158">
        <ele>417.35</ele>
        <time>2018-02-05T13:39:03Z</time>
      </trkpt>
      <trkpt lat="48.31229" lon="6.79164">
        <ele>416.87</ele>
        <time>2018-02-05T13:39:12Z</time>
      </trkpt>
      <trkpt lat="48.3123" lon="6.79168">
        <ele>416.87</ele>
        <time>2018-02-05T13:39:13Z</time>
      </trkpt>
      <trkpt lat="48.31251" lon="6.79192">
        <ele>423.12</ele>
        <time>2018-02-05T13:39:25Z</time>
      </trkpt>
      <trkpt lat="48.31251" lon="6.79193">
        <ele>423.12</ele>
        <time>2018-02-05T13:39:26Z</time>
      </trkpt>
      <trkpt lat="48.3125" lon="6.79201">
        <ele>426.48</ele>
        <time>2018-02-05T13:39:35Z</time>
      </trkpt>
      <trkpt lat="48.31244" lon="6.79212">
        <ele>429.37</ele>
        <time>2018-02-05T13:39:59Z</time>
      </trkpt>
      <trkpt lat="48.31248" lon="6.79204">
        <ele>428.4</ele>
        <time>2018-02-05T13:40:23Z</time>
      </trkpt>
      <trkpt lat="48.31239" lon="6.79212">
        <ele>425.52</ele>
        <time>2018-02-05T13:40:53Z</time>
      </trkpt>
      <trkpt lat="48.31241" lon="6.79205">
        <ele>427.92</ele>
        <time>2018-02-05T13:41:26Z</time>
      </trkpt>
      <trkpt lat="48.31236" lon="6.7921">
        <ele>435.13</ele>
        <time>2018-02-05T13:41:56Z</time>
      </trkpt>
      <trkpt lat="48.31234" lon="6.7921">
        <ele>435.61</ele>
        <time>2018-02-05T13:42:24Z</time>
      </trkpt>
      <trkpt lat="48.3124" lon="6.79198">
        <ele>428.4</ele>
        <time>2018-02-05T13:42:54Z</time>
      </trkpt>
      <trkpt lat="48.31245" lon="6.79188">
        <ele>425.04</ele>
        <time>2018-02-05T13:43:05Z</time>
      </trkpt>
      <trkpt lat="48.31255" lon="6.79169">
        <ele>423.6</ele>
        <time>2018-02-05T13:43:18Z</time>
      </trkpt>
      <trkpt lat="48.3126" lon="6.7915">
        <ele>419.75</ele>
        <time>2018-02-05T13:43:30Z</time>
      </trkpt>
      <trkpt lat="48.31262" lon="6.79133">
        <ele>417.83</ele>
        <time>2018-02-05T13:43:43Z</time>
      </trkpt>
      <trkpt lat="48.31262" lon="6.79121">
        <ele>417.83</ele>
        <time>2018-02-05T13:43:53Z</time>
      </trkpt>
      <trkpt lat="48.31263" lon="6.79112">
        <ele>419.27</ele>
        <time>2018-02-05T13:44:04Z</time>
      </trkpt>
      <trkpt lat="48.31268" lon="6.79098">
        <ele>419.27</ele>
        <time>2018-02-05T13:44:15Z</time>
      </trkpt>
      <trkpt lat="48.31267" lon="6.79089">
        <ele>419.27</ele>
        <time>2018-02-05T13:44:23Z</time>
      </trkpt>
      <trkpt lat="48.3127" lon="6.79083">
        <ele>420.23</ele>
        <time>2018-02-05T13:44:28Z</time>
      </trkpt>
      <trkpt lat="48.31271" lon="6.79079">
        <ele>420.71</ele>
        <time>2018-02-05T13:44:30Z</time>
      </trkpt>
      <trkpt lat="48.31273" lon="6.79074">
        <ele>420.71</ele>
        <time>2018-02-05T13:44:32Z</time>
      </trkpt>
      <trkpt lat="48.3128" lon="6.7906">
        <ele>420.71</ele>
        <time>2018-02-05T13:44:43Z</time>
      </trkpt>
      <trkpt lat="48.31283" lon="6.79055">
        <ele>419.27</ele>
        <time>2018-02-05T13:44:51Z</time>
      </trkpt>
      <trkpt lat="48.3129" lon="6.79047">
        <ele>417.83</ele>
        <time>2018-02-05T13:45:00Z</time>
      </trkpt>
      <trkpt lat="48.31294" lon="6.79039">
        <ele>420.23</ele>
        <time>2018-02-05T13:45:06Z</time>
      </trkpt>
      <trkpt lat="48.31297" lon="6.79036">
        <ele>420.71</ele>
        <time>2018-02-05T13:45:08Z</time>
      </trkpt>
      <trkpt lat="48.31302" lon="6.79029">
        <ele>422.16</ele>
        <time>2018-02-05T13:45:13Z</time>
      </trkpt>
      <trkpt lat="48.31314" lon="6.79019">
        <ele>426</ele>
        <time>2018-02-05T13:45:26Z</time>
      </trkpt>
      <trkpt lat="48.31319" lon="6.79014">
        <ele>427.92</ele>
        <time>2018-02-05T13:45:31Z</time>
      </trkpt>
      <trkpt lat="48.31328" lon="6.79003">
        <ele>428.89</ele>
        <time>2018-02-05T13:45:43Z</time>
      </trkpt>
      <trkpt lat="48.3133" lon="6.79001">
        <ele>428.89</ele>
        <time>2018-02-05T13:45:47Z</time>
      </trkpt>
      <trkpt lat="48.31338" lon="6.78989">
        <ele>429.85</ele>
        <time>2018-02-05T13:45:58Z</time>
      </trkpt>
      <trkpt lat="48.31347" lon="6.78978">
        <ele>430.33</ele>
        <time>2018-02-05T13:46:08Z</time>
      </trkpt>
      <trkpt lat="48.31355" lon="6.78969">
        <ele>427.92</ele>
        <time>2018-02-05T13:46:21Z</time>
      </trkpt>
      <trkpt lat="48.31358" lon="6.78963">
        <ele>426.96</ele>
        <time>2018-02-05T13:46:26Z</time>
      </trkpt>
      <trkpt lat="48.31363" lon="6.78955">
        <ele>426</ele>
        <time>2018-02-05T13:46:33Z</time>
      </trkpt>
      <trkpt lat="48.3137" lon="6.78944">
        <ele>424.08</ele>
        <time>2018-02-05T13:46:44Z</time>
      </trkpt>
      <trkpt lat="48.31374" lon="6.78939">
        <ele>424.08</ele>
        <time>2018-02-05T13:46:48Z</time>
      </trkpt>
      <trkpt lat="48.31379" lon="6.7892">
        <ele>425.52</ele>
        <time>2018-02-05T13:46:59Z</time>
      </trkpt>
      <trkpt lat="48.31388" lon="6.78904">
        <ele>424.08</ele>
        <time>2018-02-05T13:47:12Z</time>
      </trkpt>
      <trkpt lat="48.31401" lon="6.78882">
        <ele>423.12</ele>
        <time>2018-02-05T13:47:25Z</time>
      </trkpt>
      <trkpt lat="48.31404" lon="6.78867">
        <ele>421.68</ele>
        <time>2018-02-05T13:47:35Z</time>
      </trkpt>
      <trkpt lat="48.31405" lon="6.78866">
        <ele>422.16</ele>
        <time>2018-02-05T13:47:36Z</time>
      </trkpt>
      <trkpt lat="48.3141" lon="6.78846">
        <ele>423.12</ele>
        <time>2018-02-05T13:47:47Z</time>
      </trkpt>
      <trkpt lat="48.31409" lon="6.78825">
        <ele>427.44</ele>
        <time>2018-02-05T13:47:58Z</time>
      </trkpt>
      <trkpt lat="48.31412" lon="6.78809">
        <ele>428.4</ele>
        <time>2018-02-05T13:48:10Z</time>
      </trkpt>
      <trkpt lat="48.3142" lon="6.7879">
        <ele>429.85</ele>
        <time>2018-02-05T13:48:21Z</time>
      </trkpt>
      <trkpt lat="48.31422" lon="6.78786">
        <ele>428.4</ele>
        <time>2018-02-05T13:48:24Z</time>
      </trkpt>
      <trkpt lat="48.31426" lon="6.78768">
        <ele>425.04</ele>
        <time>2018-02-05T13:48:37Z</time>
      </trkpt>
      <trkpt lat="48.31425" lon="6.78763">
        <ele>425.52</ele>
        <time>2018-02-05T13:48:40Z</time>
      </trkpt>
      <trkpt lat="48.31425" lon="6.7876">
        <ele>425.04</ele>
        <time>2018-02-05T13:48:42Z</time>
      </trkpt>
      <trkpt lat="48.31426" lon="6.7875">
        <ele>422.64</ele>
        <time>2018-02-05T13:48:49Z</time>
      </trkpt>
      <trkpt lat="48.31428" lon="6.78745">
        <ele>420.23</ele>
        <time>2018-02-05T13:48:53Z</time>
      </trkpt>
      <trkpt lat="48.3143" lon="6.78739">
        <ele>418.31</ele>
        <time>2018-02-05T13:48:59Z</time>
      </trkpt>
      <trkpt lat="48.31433" lon="6.78731">
        <ele>414.95</ele>
        <time>2018-02-05T13:49:08Z</time>
      </trkpt>
      <trkpt lat="48.31432" lon="6.78724">
        <ele>416.39</ele>
        <time>2018-02-05T13:49:11Z</time>
      </trkpt>
      <trkpt lat="48.31427" lon="6.78701">
        <ele>426.48</ele>
        <time>2018-02-05T13:49:21Z</time>
      </trkpt>
      <trkpt lat="48.31427" lon="6.7871">
        <ele>426</ele>
        <time>2018-02-05T13:49:36Z</time>
      </trkpt>
      <trkpt lat="48.31428" lon="6.78729">
        <ele>431.77</ele>
        <time>2018-02-05T13:49:49Z</time>
      </trkpt>
      <trkpt lat="48.31426" lon="6.78744">
        <ele>436.58</ele>
        <time>2018-02-05T13:50:00Z</time>
      </trkpt>
      <trkpt lat="48.31425" lon="6.78763">
        <ele>439.46</ele>
        <time>2018-02-05T13:50:12Z</time>
      </trkpt>
      <trkpt lat="48.31423" lon="6.78779">
        <ele>444.75</ele>
        <time>2018-02-05T13:50:18Z</time>
      </trkpt>
      <trkpt lat="48.31426" lon="6.78799">
        <ele>448.59</ele>
        <time>2018-02-05T13:50:32Z</time>
      </trkpt>
      <trkpt lat="48.31427" lon="6.78801">
        <ele>448.11</ele>
        <time>2018-02-05T13:50:34Z</time>
      </trkpt>
      <trkpt lat="48.31428" lon="6.78823">
        <ele>450.52</ele>
        <time>2018-02-05T13:50:46Z</time>
      </trkpt>
      <trkpt lat="48.31429" lon="6.78841">
        <ele>450.03</ele>
        <time>2018-02-05T13:50:59Z</time>
      </trkpt>
      <trkpt lat="48.31428" lon="6.78854">
        <ele>447.63</ele>
        <time>2018-02-05T13:51:10Z</time>
      </trkpt>
      <trkpt lat="48.31433" lon="6.78871">
        <ele>446.19</ele>
        <time>2018-02-05T13:51:22Z</time>
      </trkpt>
      <trkpt lat="48.31437" lon="6.78891">
        <ele>445.71</ele>
        <time>2018-02-05T13:51:33Z</time>
      </trkpt>
      <trkpt lat="48.3144" lon="6.78909">
        <ele>441.38</ele>
        <time>2018-02-05T13:51:48Z</time>
      </trkpt>
      <trkpt lat="48.31442" lon="6.78927">
        <ele>441.38</ele>
        <time>2018-02-05T13:52:00Z</time>
      </trkpt>
      <trkpt lat="48.31443" lon="6.78932">
        <ele>441.86</ele>
        <time>2018-02-05T13:52:03Z</time>
      </trkpt>
      <trkpt lat="48.31447" lon="6.78958">
        <ele>448.11</ele>
        <time>2018-02-05T13:52:19Z</time>
      </trkpt>
      <trkpt lat="48.31452" lon="6.78983">
        <ele>449.07</ele>
        <time>2018-02-05T13:52:32Z</time>
      </trkpt>
      <trkpt lat="48.31452" lon="6.7899">
        <ele>450.03</ele>
        <time>2018-02-05T13:52:35Z</time>
      </trkpt>
      <trkpt lat="48.31451" lon="6.7901">
        <ele>453.88</ele>
        <time>2018-02-05T13:52:47Z</time>
      </trkpt>
      <trkpt lat="48.31454" lon="6.79022">
        <ele>450.52</ele>
        <time>2018-02-05T13:52:58Z</time>
      </trkpt>
      <trkpt lat="48.31457" lon="6.79025">
        <ele>450.03</ele>
        <time>2018-02-05T13:53:01Z</time>
      </trkpt>
      <trkpt lat="48.31461" lon="6.7904">
        <ele>447.15</ele>
        <time>2018-02-05T13:53:15Z</time>
      </trkpt>
      <trkpt lat="48.31464" lon="6.79061">
        <ele>450.52</ele>
        <time>2018-02-05T13:53:30Z</time>
      </trkpt>
      <trkpt lat="48.31463" lon="6.79078">
        <ele>456.28</ele>
        <time>2018-02-05T13:53:47Z</time>
      </trkpt>
      <trkpt lat="48.31465" lon="6.79082">
        <ele>457.72</ele>
        <time>2018-02-05T13:54:00Z</time>
      </trkpt>
      <trkpt lat="48.31471" lon="6.79084">
        <ele>456.76</ele>
        <time>2018-02-05T13:54:12Z</time>
      </trkpt>
      <trkpt lat="48.3148" lon="6.79084">
        <ele>458.69</ele>
        <time>2018-02-05T13:54:23Z</time>
      </trkpt>
      <trkpt lat="48.31492" lon="6.79088">
        <ele>458.21</ele>
        <time>2018-02-05T13:54:36Z</time>
      </trkpt>
      <trkpt lat="48.31499" lon="6.79094">
        <ele>458.69</ele>
        <time>2018-02-05T13:54:48Z</time>
      </trkpt>
      <trkpt lat="48.31509" lon="6.791">
        <ele>458.21</ele>
        <time>2018-02-05T13:55:01Z</time>
      </trkpt>
      <trkpt lat="48.31516" lon="6.79105">
        <ele>459.65</ele>
        <time>2018-02-05T13:55:16Z</time>
      </trkpt>
      <trkpt lat="48.31526" lon="6.79105">
        <ele>461.57</ele>
        <time>2018-02-05T13:55:34Z</time>
      </trkpt>
      <trkpt lat="48.31532" lon="6.79111">
        <ele>463.01</ele>
        <time>2018-02-05T13:55:46Z</time>
      </trkpt>
      <trkpt lat="48.31539" lon="6.79119">
        <ele>463.97</ele>
        <time>2018-02-05T13:55:58Z</time>
      </trkpt>
      <trkpt lat="48.3154" lon="6.79129">
        <ele>464.93</ele>
        <time>2018-02-05T13:56:14Z</time>
      </trkpt>
      <trkpt lat="48.31548" lon="6.79136">
        <ele>467.82</ele>
        <time>2018-02-05T13:56:31Z</time>
      </trkpt>
      <trkpt lat="48.31559" lon="6.79141">
        <ele>470.7</ele>
        <time>2018-02-05T13:56:44Z</time>
      </trkpt>
      <trkpt lat="48.31569" lon="6.79146">
        <ele>472.63</ele>
        <time>2018-02-05T13:56:59Z</time>
      </trkpt>
      <trkpt lat="48.31578" lon="6.79152">
        <ele>473.59</ele>
        <time>2018-02-05T13:57:15Z</time>
      </trkpt>
      <trkpt lat="48.31578" lon="6.79151">
        <ele>472.14</ele>
        <time>2018-02-05T13:57:31Z</time>
      </trkpt>
      <trkpt lat="48.31583" lon="6.79147">
        <ele>473.59</ele>
        <time>2018-02-05T13:58:01Z</time>
      </trkpt>
      <trkpt lat="48.31588" lon="6.79147">
        <ele>474.07</ele>
        <time>2018-02-05T13:58:31Z</time>
      </trkpt>
      <trkpt lat="48.31584" lon="6.79161">
        <ele>470.7</ele>
        <time>2018-02-05T13:59:02Z</time>
      </trkpt>
      <trkpt lat="48.3158" lon="6.7916">
        <ele>473.11</ele>
        <time>2018-02-05T13:59:32Z</time>
      </trkpt>
      <trkpt lat="48.3157" lon="6.79158">
        <ele>481.76</ele>
        <time>2018-02-05T14:00:07Z</time>
      </trkpt>
      <trkpt lat="48.31573" lon="6.79154">
        <ele>482.72</ele>
        <time>2018-02-05T14:00:34Z</time>
      </trkpt>
      <trkpt lat="48.31573" lon="6.79164">
        <ele>485.12</ele>
        <time>2018-02-05T14:01:07Z</time>
      </trkpt>
      <trkpt lat="48.31566" lon="6.79166">
        <ele>486.08</ele>
        <time>2018-02-05T14:01:44Z</time>
      </trkpt>
      <trkpt lat="48.31574" lon="6.79178">
        <ele>484.64</ele>
        <time>2018-02-05T14:02:10Z</time>
      </trkpt>
      <trkpt lat="48.31585" lon="6.7918">
        <ele>484.16</ele>
        <time>2018-02-05T14:02:22Z</time>
      </trkpt>
      <trkpt lat="48.31587" lon="6.79182">
        <ele>484.16</ele>
        <time>2018-02-05T14:02:24Z</time>
      </trkpt>
      <trkpt lat="48.31593" lon="6.79184">
        <ele>480.8</ele>
        <time>2018-02-05T14:02:41Z</time>
      </trkpt>
      <trkpt lat="48.31601" lon="6.7919">
        <ele>483.2</ele>
        <time>2018-02-05T14:02:57Z</time>
      </trkpt>
      <trkpt lat="48.31607" lon="6.79204">
        <ele>485.12</ele>
        <time>2018-02-05T14:03:13Z</time>
      </trkpt>
      <trkpt lat="48.31617" lon="6.79207">
        <ele>484.16</ele>
        <time>2018-02-05T14:03:28Z</time>
      </trkpt>
      <trkpt lat="48.31627" lon="6.79214">
        <ele>481.76</ele>
        <time>2018-02-05T14:03:39Z</time>
      </trkpt>
      <trkpt lat="48.31633" lon="6.79219">
        <ele>476.95</ele>
        <time>2018-02-05T14:03:51Z</time>
      </trkpt>
      <trkpt lat="48.3164" lon="6.79224">
        <ele>478.87</ele>
        <time>2018-02-05T14:03:58Z</time>
      </trkpt>
      <trkpt lat="48.31648" lon="6.7923">
        <ele>478.87</ele>
        <time>2018-02-05T14:04:07Z</time>
      </trkpt>
      <trkpt lat="48.31658" lon="6.79244">
        <ele>477.91</ele>
        <time>2018-02-05T14:04:21Z</time>
      </trkpt>
      <trkpt lat="48.31669" lon="6.79257">
        <ele>478.39</ele>
        <time>2018-02-05T14:04:35Z</time>
      </trkpt>
      <trkpt lat="48.3168" lon="6.79265">
        <ele>474.07</ele>
        <time>2018-02-05T14:04:49Z</time>
      </trkpt>
      <trkpt lat="48.31689" lon="6.79269">
        <ele>473.11</ele>
        <time>2018-02-05T14:04:55Z</time>
      </trkpt>
      <trkpt lat="48.31697" lon="6.79273">
        <ele>469.74</ele>
        <time>2018-02-05T14:05:05Z</time>
      </trkpt>
      <trkpt lat="48.31708" lon="6.79281">
        <ele>464.45</ele>
        <time>2018-02-05T14:05:17Z</time>
      </trkpt>
      <trkpt lat="48.31721" lon="6.79284">
        <ele>458.69</ele>
        <time>2018-02-05T14:05:31Z</time>
      </trkpt>
      <trkpt lat="48.31735" lon="6.7929">
        <ele>452.92</ele>
        <time>2018-02-05T14:05:50Z</time>
      </trkpt>
      <trkpt lat="48.31755" lon="6.79297">
        <ele>451</ele>
        <time>2018-02-05T14:06:06Z</time>
      </trkpt>
      <trkpt lat="48.3177" lon="6.79311">
        <ele>449.07</ele>
        <time>2018-02-05T14:06:21Z</time>
      </trkpt>
      <trkpt lat="48.31787" lon="6.7933">
        <ele>451</ele>
        <time>2018-02-05T14:06:39Z</time>
      </trkpt>
      <trkpt lat="48.31798" lon="6.79336">
        <ele>447.63</ele>
        <time>2018-02-05T14:06:49Z</time>
      </trkpt>
      <trkpt lat="48.31804" lon="6.79344">
        <ele>449.07</ele>
        <time>2018-02-05T14:06:56Z</time>
      </trkpt>
      <trkpt lat="48.3181" lon="6.79349">
        <ele>447.15</ele>
        <time>2018-02-05T14:07:04Z</time>
      </trkpt>
      <trkpt lat="48.31812" lon="6.79351">
        <ele>447.15</ele>
        <time>2018-02-05T14:07:06Z</time>
      </trkpt>
      <trkpt lat="48.31823" lon="6.79364">
        <ele>444.75</ele>
        <time>2018-02-05T14:07:19Z</time>
      </trkpt>
      <trkpt lat="48.31829" lon="6.79374">
        <ele>444.75</ele>
        <time>2018-02-05T14:07:30Z</time>
      </trkpt>
      <trkpt lat="48.3184" lon="6.79388">
        <ele>445.71</ele>
        <time>2018-02-05T14:07:44Z</time>
      </trkpt>
      <trkpt lat="48.31842" lon="6.79389">
        <ele>445.71</ele>
        <time>2018-02-05T14:07:46Z</time>
      </trkpt>
      <trkpt lat="48.31853" lon="6.79401">
        <ele>445.23</ele>
        <time>2018-02-05T14:07:59Z</time>
      </trkpt>
      <trkpt lat="48.31856" lon="6.79404">
        <ele>445.23</ele>
        <time>2018-02-05T14:08:02Z</time>
      </trkpt>
      <trkpt lat="48.3187" lon="6.79416">
        <ele>444.75</ele>
        <time>2018-02-05T14:08:17Z</time>
      </trkpt>
      <trkpt lat="48.31871" lon="6.79418">
        <ele>445.23</ele>
        <time>2018-02-05T14:08:19Z</time>
      </trkpt>
      <trkpt lat="48.31885" lon="6.7943">
        <ele>442.82</ele>
        <time>2018-02-05T14:08:33Z</time>
      </trkpt>
      <trkpt lat="48.31891" lon="6.79436">
        <ele>441.86</ele>
        <time>2018-02-05T14:08:39Z</time>
      </trkpt>
      <trkpt lat="48.319" lon="6.7945">
        <ele>440.9</ele>
        <time>2018-02-05T14:08:53Z</time>
      </trkpt>
      <trkpt lat="48.31901" lon="6.79468">
        <ele>443.31</ele>
        <time>2018-02-05T14:09:05Z</time>
      </trkpt>
      <trkpt lat="48.31902" lon="6.79472">
        <ele>443.31</ele>
        <time>2018-02-05T14:09:08Z</time>
      </trkpt>
      <trkpt lat="48.31904" lon="6.79481">
        <ele>442.34</ele>
        <time>2018-02-05T14:09:14Z</time>
      </trkpt>
      <trkpt lat="48.31911" lon="6.795">
        <ele>439.94</ele>
        <time>2018-02-05T14:09:29Z</time>
      </trkpt>
      <trkpt lat="48.3192" lon="6.7952">
        <ele>437.54</ele>
        <time>2018-02-05T14:09:40Z</time>
      </trkpt>
      <trkpt lat="48.31928" lon="6.79531">
        <ele>437.54</ele>
        <time>2018-02-05T14:09:47Z</time>
      </trkpt>
      <trkpt lat="48.31931" lon="6.79548">
        <ele>436.1</ele>
        <time>2018-02-05T14:09:55Z</time>
      </trkpt>
      <trkpt lat="48.31937" lon="6.79572">
        <ele>436.58</ele>
        <time>2018-02-05T14:10:07Z</time>
      </trkpt>
      <trkpt lat="48.31943" lon="6.79585">
        <ele>433.69</ele>
        <time>2018-02-05T14:10:20Z</time>
      </trkpt>
      <trkpt lat="48.31943" lon="6.79584">
        <ele>432.25</ele>
        <time>2018-02-05T14:10:37Z</time>
      </trkpt>
      <trkpt lat="48.31948" lon="6.7958">
        <ele>433.21</ele>
        <time>2018-02-05T14:11:05Z</time>
      </trkpt>
      <trkpt lat="48.31946" lon="6.79578">
        <ele>433.69</ele>
        <time>2018-02-05T14:11:32Z</time>
      </trkpt>
      <trkpt lat="48.31944" lon="6.79577">
        <ele>434.65</ele>
        <time>2018-02-05T14:11:51Z</time>
      </trkpt>
      <trkpt lat="48.3194" lon="6.79579">
        <ele>433.69</ele>
        <time>2018-02-05T14:12:18Z</time>
      </trkpt>
      <trkpt lat="48.3194" lon="6.79592">
        <ele>430.33</ele>
        <time>2018-02-05T14:12:35Z</time>
      </trkpt>
      <trkpt lat="48.31947" lon="6.79605">
        <ele>424.56</ele>
        <time>2018-02-05T14:12:48Z</time>
      </trkpt>
      <trkpt lat="48.31954" lon="6.7963">
        <ele>427.44</ele>
        <time>2018-02-05T14:13:03Z</time>
      </trkpt>
      <trkpt lat="48.31955" lon="6.79632">
        <ele>427.44</ele>
        <time>2018-02-05T14:13:06Z</time>
      </trkpt>
      <trkpt lat="48.31962" lon="6.79647">
        <ele>426.96</ele>
        <time>2018-02-05T14:13:19Z</time>
      </trkpt>
      <trkpt lat="48.31965" lon="6.79668">
        <ele>426</ele>
        <time>2018-02-05T14:13:32Z</time>
      </trkpt>
      <trkpt lat="48.31967" lon="6.79688">
        <ele>425.04</ele>
        <time>2018-02-05T14:13:43Z</time>
      </trkpt>
      <trkpt lat="48.31972" lon="6.79712">
        <ele>428.4</ele>
        <time>2018-02-05T14:13:55Z</time>
      </trkpt>
      <trkpt lat="48.31976" lon="6.79723">
        <ele>426.96</ele>
        <time>2018-02-05T14:14:09Z</time>
      </trkpt>
      <trkpt lat="48.31975" lon="6.79736">
        <ele>423.6</ele>
        <time>2018-02-05T14:14:19Z</time>
      </trkpt>
      <trkpt lat="48.31973" lon="6.79745">
        <ele>422.64</ele>
        <time>2018-02-05T14:14:25Z</time>
      </trkpt>
      <trkpt lat="48.31968" lon="6.79765">
        <ele>425.52</ele>
        <time>2018-02-05T14:14:36Z</time>
      </trkpt>
      <trkpt lat="48.31968" lon="6.79783">
        <ele>423.6</ele>
        <time>2018-02-05T14:14:48Z</time>
      </trkpt>
      <trkpt lat="48.31966" lon="6.79792">
        <ele>422.16</ele>
        <time>2018-02-05T14:14:53Z</time>
      </trkpt>
      <trkpt lat="48.31963" lon="6.79802">
        <ele>423.12</ele>
        <time>2018-02-05T14:14:58Z</time>
      </trkpt>
      <trkpt lat="48.31964" lon="6.79827">
        <ele>424.56</ele>
        <time>2018-02-05T14:15:10Z</time>
      </trkpt>
      <trkpt lat="48.31964" lon="6.79829">
        <ele>425.04</ele>
        <time>2018-02-05T14:15:11Z</time>
      </trkpt>
      <trkpt lat="48.31962" lon="6.79837">
        <ele>425.04</ele>
        <time>2018-02-05T14:15:17Z</time>
      </trkpt>
      <trkpt lat="48.31962" lon="6.79843">
        <ele>425.04</ele>
        <time>2018-02-05T14:15:22Z</time>
      </trkpt>
      <trkpt lat="48.3196" lon="6.79856">
        <ele>423.12</ele>
        <time>2018-02-05T14:15:30Z</time>
      </trkpt>
      <trkpt lat="48.31957" lon="6.79877">
        <ele>425.04</ele>
        <time>2018-02-05T14:15:38Z</time>
      </trkpt>
      <trkpt lat="48.31956" lon="6.79885">
        <ele>427.44</ele>
        <time>2018-02-05T14:15:42Z</time>
      </trkpt>
      <trkpt lat="48.31955" lon="6.79895">
        <ele>427.44</ele>
        <time>2018-02-05T14:15:47Z</time>
      </trkpt>
      <trkpt lat="48.31955" lon="6.79907">
        <ele>426</ele>
        <time>2018-02-05T14:15:55Z</time>
      </trkpt>
      <trkpt lat="48.31954" lon="6.79932">
        <ele>423.12</ele>
        <time>2018-02-05T14:16:08Z</time>
      </trkpt>
      <trkpt lat="48.31954" lon="6.7994">
        <ele>422.16</ele>
        <time>2018-02-05T14:16:12Z</time>
      </trkpt>
      <trkpt lat="48.31952" lon="6.79953">
        <ele>423.12</ele>
        <time>2018-02-05T14:16:19Z</time>
      </trkpt>
      <trkpt lat="48.3195" lon="6.79974">
        <ele>421.68</ele>
        <time>2018-02-05T14:16:32Z</time>
      </trkpt>
      <trkpt lat="48.31948" lon="6.79988">
        <ele>418.79</ele>
        <time>2018-02-05T14:16:44Z</time>
      </trkpt>
      <trkpt lat="48.31941" lon="6.80011">
        <ele>412.06</ele>
        <time>2018-02-05T14:16:58Z</time>
      </trkpt>
      <trkpt lat="48.31939" lon="6.8003">
        <ele>410.62</ele>
        <time>2018-02-05T14:17:09Z</time>
      </trkpt>
      <trkpt lat="48.31939" lon="6.8005">
        <ele>410.62</ele>
        <time>2018-02-05T14:17:20Z</time>
      </trkpt>
      <trkpt lat="48.31934" lon="6.80075">
        <ele>413.5</ele>
        <time>2018-02-05T14:17:34Z</time>
      </trkpt>
      <trkpt lat="48.31932" lon="6.80092">
        <ele>417.83</ele>
        <time>2018-02-05T14:17:45Z</time>
      </trkpt>
      <trkpt lat="48.31931" lon="6.801">
        <ele>419.27</ele>
        <time>2018-02-05T14:17:48Z</time>
      </trkpt>
      <trkpt lat="48.31931" lon="6.80141">
        <ele>427.44</ele>
        <time>2018-02-05T14:18:03Z</time>
      </trkpt>
      <trkpt lat="48.31933" lon="6.80163">
        <ele>423.6</ele>
        <time>2018-02-05T14:18:16Z</time>
      </trkpt>
      <trkpt lat="48.3193" lon="6.8018">
        <ele>423.12</ele>
        <time>2018-02-05T14:18:26Z</time>
      </trkpt>
      <trkpt lat="48.3193" lon="6.80184">
        <ele>423.6</ele>
        <time>2018-02-05T14:18:28Z</time>
      </trkpt>
      <trkpt lat="48.3193" lon="6.80192">
        <ele>422.16</ele>
        <time>2018-02-05T14:18:33Z</time>
      </trkpt>
      <trkpt lat="48.31929" lon="6.80207">
        <ele>422.64</ele>
        <time>2018-02-05T14:18:41Z</time>
      </trkpt>
      <trkpt lat="48.3193" lon="6.80234">
        <ele>426.96</ele>
        <time>2018-02-05T14:18:55Z</time>
      </trkpt>
      <trkpt lat="48.3193" lon="6.80244">
        <ele>426</ele>
        <time>2018-02-05T14:19:00Z</time>
      </trkpt>
      <trkpt lat="48.31934" lon="6.80272">
        <ele>424.56</ele>
        <time>2018-02-05T14:19:15Z</time>
      </trkpt>
      <trkpt lat="48.31935" lon="6.80292">
        <ele>424.56</ele>
        <time>2018-02-05T14:19:30Z</time>
      </trkpt>
      <trkpt lat="48.31933" lon="6.80297">
        <ele>426</ele>
        <time>2018-02-05T14:19:46Z</time>
      </trkpt>
      <trkpt lat="48.31941" lon="6.80293">
        <ele>425.04</ele>
        <time>2018-02-05T14:20:06Z</time>
      </trkpt>
      <trkpt lat="48.31949" lon="6.80299">
        <ele>423.12</ele>
        <time>2018-02-05T14:20:19Z</time>
      </trkpt>
      <trkpt lat="48.31954" lon="6.80309">
        <ele>418.79</ele>
        <time>2018-02-05T14:20:30Z</time>
      </trkpt>
      <trkpt lat="48.31956" lon="6.80319">
        <ele>419.27</ele>
        <time>2018-02-05T14:20:41Z</time>
      </trkpt>
      <trkpt lat="48.31967" lon="6.80336">
        <ele>418.79</ele>
        <time>2018-02-05T14:20:55Z</time>
      </trkpt>
      <trkpt lat="48.31973" lon="6.80347">
        <ele>419.27</ele>
        <time>2018-02-05T14:21:05Z</time>
      </trkpt>
      <trkpt lat="48.31978" lon="6.80354">
        <ele>419.27</ele>
        <time>2018-02-05T14:21:15Z</time>
      </trkpt>
      <trkpt lat="48.31983" lon="6.80363">
        <ele>416.39</ele>
        <time>2018-02-05T14:21:28Z</time>
      </trkpt>
      <trkpt lat="48.31994" lon="6.80376">
        <ele>414.47</ele>
        <time>2018-02-05T14:21:43Z</time>
      </trkpt>
      <trkpt lat="48.32003" lon="6.80379">
        <ele>410.62</ele>
        <time>2018-02-05T14:21:55Z</time>
      </trkpt>
      <trkpt lat="48.32008" lon="6.80384">
        <ele>407.26</ele>
        <time>2018-02-05T14:22:05Z</time>
      </trkpt>
      <trkpt lat="48.32014" lon="6.80393">
        <ele>407.26</ele>
        <time>2018-02-05T14:22:17Z</time>
      </trkpt>
      <trkpt lat="48.32017" lon="6.80401">
        <ele>403.41</ele>
        <time>2018-02-05T14:22:30Z</time>
      </trkpt>
      <trkpt lat="48.32017" lon="6.80408">
        <ele>403.41</ele>
        <time>2018-02-05T14:22:42Z</time>
      </trkpt>
      <trkpt lat="48.32016" lon="6.80412">
        <ele>403.41</ele>
        <time>2018-02-05T14:22:45Z</time>
      </trkpt>
      <trkpt lat="48.32014" lon="6.80431">
        <ele>403.41</ele>
        <time>2018-02-05T14:22:57Z</time>
      </trkpt>
      <trkpt lat="48.32012" lon="6.80451">
        <ele>401.49</ele>
        <time>2018-02-05T14:23:10Z</time>
      </trkpt>
      <trkpt lat="48.32015" lon="6.80457">
        <ele>402.93</ele>
        <time>2018-02-05T14:23:18Z</time>
      </trkpt>
      <trkpt lat="48.32012" lon="6.80475">
        <ele>403.41</ele>
        <time>2018-02-05T14:23:30Z</time>
      </trkpt>
      <trkpt lat="48.32013" lon="6.80488">
        <ele>402.93</ele>
        <time>2018-02-05T14:23:41Z</time>
      </trkpt>
      <trkpt lat="48.32017" lon="6.80497">
        <ele>400.53</ele>
        <time>2018-02-05T14:23:51Z</time>
      </trkpt>
      <trkpt lat="48.32019" lon="6.80515">
        <ele>400.53</ele>
        <time>2018-02-05T14:24:03Z</time>
      </trkpt>
      <trkpt lat="48.32011" lon="6.80536">
        <ele>401.97</ele>
        <time>2018-02-05T14:24:16Z</time>
      </trkpt>
      <trkpt lat="48.32008" lon="6.80542">
        <ele>401.97</ele>
        <time>2018-02-05T14:24:21Z</time>
      </trkpt>
      <trkpt lat="48.32006" lon="6.80548">
        <ele>402.45</ele>
        <time>2018-02-05T14:24:25Z</time>
      </trkpt>
      <trkpt lat="48.32006" lon="6.80563">
        <ele>401.97</ele>
        <time>2018-02-05T14:24:31Z</time>
      </trkpt>
      <trkpt lat="48.32008" lon="6.80578">
        <ele>401.01</ele>
        <time>2018-02-05T14:24:38Z</time>
      </trkpt>
      <trkpt lat="48.3201" lon="6.80601">
        <ele>401.01</ele>
        <time>2018-02-05T14:24:52Z</time>
      </trkpt>
      <trkpt lat="48.32008" lon="6.80612">
        <ele>400.05</ele>
        <time>2018-02-05T14:25:00Z</time>
      </trkpt>
      <trkpt lat="48.3201" lon="6.80626">
        <ele>401.01</ele>
        <time>2018-02-05T14:25:09Z</time>
      </trkpt>
      <trkpt lat="48.32011" lon="6.80644">
        <ele>401.97</ele>
        <time>2018-02-05T14:25:21Z</time>
      </trkpt>
      <trkpt lat="48.32012" lon="6.80657">
        <ele>401.49</ele>
        <time>2018-02-05T14:25:30Z</time>
      </trkpt>
      <trkpt lat="48.32014" lon="6.8067">
        <ele>402.93</ele>
        <time>2018-02-05T14:25:38Z</time>
      </trkpt>
      <trkpt lat="48.32019" lon="6.80685">
        <ele>404.37</ele>
        <time>2018-02-05T14:25:50Z</time>
      </trkpt>
      <trkpt lat="48.32019" lon="6.80689">
        <ele>404.37</ele>
        <time>2018-02-05T14:25:53Z</time>
      </trkpt>
      <trkpt lat="48.32021" lon="6.80702">
        <ele>401.49</ele>
        <time>2018-02-05T14:26:05Z</time>
      </trkpt>
      <trkpt lat="48.3202" lon="6.8071">
        <ele>404.85</ele>
        <time>2018-02-05T14:26:29Z</time>
      </trkpt>
      <trkpt lat="48.32026" lon="6.80733">
        <ele>435.13</ele>
        <time>2018-02-05T14:26:51Z</time>
      </trkpt>
      <trkpt lat="48.32026" lon="6.80736">
        <ele>443.31</ele>
        <time>2018-02-05T14:27:10Z</time>
      </trkpt>
      <trkpt lat="48.32022" lon="6.80739">
        <ele>448.11</ele>
        <time>2018-02-05T14:27:36Z</time>
      </trkpt>
      <trkpt lat="48.32018" lon="6.80739">
        <ele>447.63</ele>
        <time>2018-02-05T14:27:58Z</time>
      </trkpt>
      <trkpt lat="48.32024" lon="6.80736">
        <ele>446.19</ele>
        <time>2018-02-05T14:28:22Z</time>
      </trkpt>
      <trkpt lat="48.32022" lon="6.80736">
        <ele>448.11</ele>
        <time>2018-02-05T14:28:42Z</time>
      </trkpt>
      <trkpt lat="48.3202" lon="6.80736">
        <ele>447.63</ele>
        <time>2018-02-05T14:28:57Z</time>
      </trkpt>
      <trkpt lat="48.32024" lon="6.80732">
        <ele>446.19</ele>
        <time>2018-02-05T14:29:12Z</time>
      </trkpt>
      <trkpt lat="48.32028" lon="6.80736">
        <ele>443.31</ele>
        <time>2018-02-05T14:29:35Z</time>
      </trkpt>
      <trkpt lat="48.32031" lon="6.80749">
        <ele>438.98</ele>
        <time>2018-02-05T14:29:46Z</time>
      </trkpt>
      <trkpt lat="48.32035" lon="6.80764">
        <ele>438.5</ele>
        <time>2018-02-05T14:29:55Z</time>
      </trkpt>
      <trkpt lat="48.3204" lon="6.80781">
        <ele>438.5</ele>
        <time>2018-02-05T14:30:06Z</time>
      </trkpt>
      <trkpt lat="48.32047" lon="6.80798">
        <ele>437.06</ele>
        <time>2018-02-05T14:30:18Z</time>
      </trkpt>
      <trkpt lat="48.32057" lon="6.80819">
        <ele>434.65</ele>
        <time>2018-02-05T14:30:32Z</time>
      </trkpt>
      <trkpt lat="48.32065" lon="6.80838">
        <ele>432.73</ele>
        <time>2018-02-05T14:30:45Z</time>
      </trkpt>
      <trkpt lat="48.32068" lon="6.8084">
        <ele>432.25</ele>
        <time>2018-02-05T14:30:48Z</time>
      </trkpt>
      <trkpt lat="48.32074" lon="6.80847">
        <ele>430.81</ele>
        <time>2018-02-05T14:30:55Z</time>
      </trkpt>
      <trkpt lat="48.3208" lon="6.80849">
        <ele>430.81</ele>
        <time>2018-02-05T14:31:01Z</time>
      </trkpt>
      <trkpt lat="48.32083" lon="6.80851">
        <ele>431.29</ele>
        <time>2018-02-05T14:31:03Z</time>
      </trkpt>
      <trkpt lat="48.32089" lon="6.80853">
        <ele>431.77</ele>
        <time>2018-02-05T14:31:09Z</time>
      </trkpt>
      <trkpt lat="48.32096" lon="6.80854">
        <ele>431.29</ele>
        <time>2018-02-05T14:31:14Z</time>
      </trkpt>
      <trkpt lat="48.32107" lon="6.80849">
        <ele>428.89</ele>
        <time>2018-02-05T14:31:25Z</time>
      </trkpt>
      <trkpt lat="48.32112" lon="6.80844">
        <ele>427.92</ele>
        <time>2018-02-05T14:31:30Z</time>
      </trkpt>
      <trkpt lat="48.32117" lon="6.80835">
        <ele>425.04</ele>
        <time>2018-02-05T14:31:40Z</time>
      </trkpt>
      <trkpt lat="48.32119" lon="6.80826">
        <ele>426</ele>
        <time>2018-02-05T14:31:46Z</time>
      </trkpt>
      <trkpt lat="48.32121" lon="6.80822">
        <ele>426.48</ele>
        <time>2018-02-05T14:31:49Z</time>
      </trkpt>
      <trkpt lat="48.32126" lon="6.80805">
        <ele>427.44</ele>
        <time>2018-02-05T14:32:01Z</time>
      </trkpt>
      <trkpt lat="48.32128" lon="6.80796">
        <ele>427.92</ele>
        <time>2018-02-05T14:32:07Z</time>
      </trkpt>
      <trkpt lat="48.3213" lon="6.80787">
        <ele>427.44</ele>
        <time>2018-02-05T14:32:14Z</time>
      </trkpt>
      <trkpt lat="48.32129" lon="6.80773">
        <ele>427.44</ele>
        <time>2018-02-05T14:32:22Z</time>
      </trkpt>
      <trkpt lat="48.32132" lon="6.80767">
        <ele>427.92</ele>
        <time>2018-02-05T14:32:26Z</time>
      </trkpt>
      <trkpt lat="48.32134" lon="6.80753">
        <ele>428.4</ele>
        <time>2018-02-05T14:32:36Z</time>
      </trkpt>
      <trkpt lat="48.32133" lon="6.80747">
        <ele>427.92</ele>
        <time>2018-02-05T14:32:39Z</time>
      </trkpt>
      <trkpt lat="48.32134" lon="6.80726">
        <ele>427.44</ele>
        <time>2018-02-05T14:32:52Z</time>
      </trkpt>
      <trkpt lat="48.32136" lon="6.80716">
        <ele>426.96</ele>
        <time>2018-02-05T14:32:59Z</time>
      </trkpt>
      <trkpt lat="48.32136" lon="6.80697">
        <ele>427.44</ele>
        <time>2018-02-05T14:33:09Z</time>
      </trkpt>
      <trkpt lat="48.32136" lon="6.8069">
        <ele>427.92</ele>
        <time>2018-02-05T14:33:13Z</time>
      </trkpt>
      <trkpt lat="48.32138" lon="6.80667">
        <ele>427.44</ele>
        <time>2018-02-05T14:33:26Z</time>
      </trkpt>
      <trkpt lat="48.32137" lon="6.80659">
        <ele>427.92</ele>
        <time>2018-02-05T14:33:31Z</time>
      </trkpt>
      <trkpt lat="48.32137" lon="6.8064">
        <ele>426.96</ele>
        <time>2018-02-05T14:33:44Z</time>
      </trkpt>
      <trkpt lat="48.32136" lon="6.8062">
        <ele>430.33</ele>
        <time>2018-02-05T14:33:56Z</time>
      </trkpt>
      <trkpt lat="48.32137" lon="6.80602">
        <ele>433.21</ele>
        <time>2018-02-05T14:34:07Z</time>
      </trkpt>
      <trkpt lat="48.32137" lon="6.80596">
        <ele>432.73</ele>
        <time>2018-02-05T14:34:10Z</time>
      </trkpt>
      <trkpt lat="48.32138" lon="6.80591">
        <ele>431.77</ele>
        <time>2018-02-05T14:34:13Z</time>
      </trkpt>
      <trkpt lat="48.32138" lon="6.80584">
        <ele>432.73</ele>
        <time>2018-02-05T14:34:18Z</time>
      </trkpt>
      <trkpt lat="48.32138" lon="6.80573">
        <ele>433.69</ele>
        <time>2018-02-05T14:34:25Z</time>
      </trkpt>
      <trkpt lat="48.32138" lon="6.80559">
        <ele>435.13</ele>
        <time>2018-02-05T14:34:35Z</time>
      </trkpt>
      <trkpt lat="48.3214" lon="6.80537">
        <ele>437.54</ele>
        <time>2018-02-05T14:34:50Z</time>
      </trkpt>
      <trkpt lat="48.32141" lon="6.80525">
        <ele>438.02</ele>
        <time>2018-02-05T14:34:57Z</time>
      </trkpt>
      <trkpt lat="48.32144" lon="6.80512">
        <ele>438.98</ele>
        <time>2018-02-05T14:35:04Z</time>
      </trkpt>
      <trkpt lat="48.32152" lon="6.80494">
        <ele>439.46</ele>
        <time>2018-02-05T14:35:18Z</time>
      </trkpt>
      <trkpt lat="48.32153" lon="6.80492">
        <ele>439.94</ele>
        <time>2018-02-05T14:35:19Z</time>
      </trkpt>
      <trkpt lat="48.32153" lon="6.80484">
        <ele>440.42</ele>
        <time>2018-02-05T14:35:22Z</time>
      </trkpt>
      <trkpt lat="48.32153" lon="6.80479">
        <ele>440.9</ele>
        <time>2018-02-05T14:35:25Z</time>
      </trkpt>
      <trkpt lat="48.32157" lon="6.80472">
        <ele>440.9</ele>
        <time>2018-02-05T14:35:30Z</time>
      </trkpt>
      <trkpt lat="48.3216" lon="6.80463">
        <ele>442.34</ele>
        <time>2018-02-05T14:35:36Z</time>
      </trkpt>
      <trkpt lat="48.32164" lon="6.8045">
        <ele>445.23</ele>
        <time>2018-02-05T14:35:46Z</time>
      </trkpt>
      <trkpt lat="48.32172" lon="6.8043">
        <ele>447.15</ele>
        <time>2018-02-05T14:36:00Z</time>
      </trkpt>
      <trkpt lat="48.32175" lon="6.80419">
        <ele>449.55</ele>
        <time>2018-02-05T14:36:11Z</time>
      </trkpt>
      <trkpt lat="48.32181" lon="6.80402">
        <ele>447.15</ele>
        <time>2018-02-05T14:36:22Z</time>
      </trkpt>
      <trkpt lat="48.32182" lon="6.804">
        <ele>447.15</ele>
        <time>2018-02-05T14:36:24Z</time>
      </trkpt>
      <trkpt lat="48.32184" lon="6.80392">
        <ele>448.11</ele>
        <time>2018-02-05T14:36:30Z</time>
      </trkpt>
      <trkpt lat="48.32185" lon="6.80389">
        <ele>448.59</ele>
        <time>2018-02-05T14:36:32Z</time>
      </trkpt>
      <trkpt lat="48.32188" lon="6.80385">
        <ele>449.55</ele>
        <time>2018-02-05T14:36:35Z</time>
      </trkpt>
      <trkpt lat="48.32192" lon="6.80374">
        <ele>450.52</ele>
        <time>2018-02-05T14:36:44Z</time>
      </trkpt>
      <trkpt lat="48.32196" lon="6.80368">
        <ele>451.96</ele>
        <time>2018-02-05T14:36:48Z</time>
      </trkpt>
      <trkpt lat="48.32198" lon="6.80362">
        <ele>451.96</ele>
        <time>2018-02-05T14:36:52Z</time>
      </trkpt>
      <trkpt lat="48.32205" lon="6.80348">
        <ele>454.84</ele>
        <time>2018-02-05T14:37:03Z</time>
      </trkpt>
      <trkpt lat="48.32206" lon="6.80346">
        <ele>454.84</ele>
        <time>2018-02-05T14:37:05Z</time>
      </trkpt>
      <trkpt lat="48.32209" lon="6.80338">
        <ele>455.8</ele>
        <time>2018-02-05T14:37:12Z</time>
      </trkpt>
      <trkpt lat="48.32211" lon="6.8033">
        <ele>457.24</ele>
        <time>2018-02-05T14:37:18Z</time>
      </trkpt>
      <trkpt lat="48.32209" lon="6.8031">
        <ele>460.13</ele>
        <time>2018-02-05T14:37:29Z</time>
      </trkpt>
      <trkpt lat="48.32212" lon="6.80292">
        <ele>461.57</ele>
        <time>2018-02-05T14:37:42Z</time>
      </trkpt>
      <trkpt lat="48.32212" lon="6.80283">
        <ele>462.05</ele>
        <time>2018-02-05T14:37:49Z</time>
      </trkpt>
      <trkpt lat="48.32211" lon="6.80278">
        <ele>462.53</ele>
        <time>2018-02-05T14:37:52Z</time>
      </trkpt>
      <trkpt lat="48.32212" lon="6.80267">
        <ele>463.01</ele>
        <time>2018-02-05T14:38:02Z</time>
      </trkpt>
      <trkpt lat="48.32211" lon="6.80254">
        <ele>463.97</ele>
        <time>2018-02-05T14:38:13Z</time>
      </trkpt>
      <trkpt lat="48.32209" lon="6.80238">
        <ele>466.86</ele>
        <time>2018-02-05T14:38:25Z</time>
      </trkpt>
      <trkpt lat="48.32211" lon="6.80223">
        <ele>468.3</ele>
        <time>2018-02-05T14:38:37Z</time>
      </trkpt>
      <trkpt lat="48.32211" lon="6.80204">
        <ele>468.3</ele>
        <time>2018-02-05T14:38:48Z</time>
      </trkpt>
      <trkpt lat="48.32207" lon="6.80187">
        <ele>467.82</ele>
        <time>2018-02-05T14:38:59Z</time>
      </trkpt>
      <trkpt lat="48.322" lon="6.80167">
        <ele>469.74</ele>
        <time>2018-02-05T14:39:11Z</time>
      </trkpt>
      <trkpt lat="48.32195" lon="6.80151">
        <ele>472.14</ele>
        <time>2018-02-05T14:39:23Z</time>
      </trkpt>
      <trkpt lat="48.32193" lon="6.80134">
        <ele>469.74</ele>
        <time>2018-02-05T14:39:35Z</time>
      </trkpt>
      <trkpt lat="48.32193" lon="6.8013">
        <ele>469.74</ele>
        <time>2018-02-05T14:39:38Z</time>
      </trkpt>
      <trkpt lat="48.32193" lon="6.80125">
        <ele>469.74</ele>
        <time>2018-02-05T14:39:41Z</time>
      </trkpt>
      <trkpt lat="48.32191" lon="6.80121">
        <ele>470.22</ele>
        <time>2018-02-05T14:39:44Z</time>
      </trkpt>
      <trkpt lat="48.32192" lon="6.80118">
        <ele>470.7</ele>
        <time>2018-02-05T14:39:46Z</time>
      </trkpt>
      <trkpt lat="48.32191" lon="6.80104">
        <ele>472.14</ele>
        <time>2018-02-05T14:39:54Z</time>
      </trkpt>
      <trkpt lat="48.32194" lon="6.80089">
        <ele>474.07</ele>
        <time>2018-02-05T14:40:04Z</time>
      </trkpt>
      <trkpt lat="48.32193" lon="6.80085">
        <ele>474.07</ele>
        <time>2018-02-05T14:40:06Z</time>
      </trkpt>
      <trkpt lat="48.32194" lon="6.8007">
        <ele>476.47</ele>
        <time>2018-02-05T14:40:18Z</time>
      </trkpt>
      <trkpt lat="48.32195" lon="6.80068">
        <ele>476.47</ele>
        <time>2018-02-05T14:40:20Z</time>
      </trkpt>
      <trkpt lat="48.32193" lon="6.8005">
        <ele>479.84</ele>
        <time>2018-02-05T14:40:32Z</time>
      </trkpt>
      <trkpt lat="48.32187" lon="6.80045">
        <ele>486.08</ele>
        <time>2018-02-05T14:40:57Z</time>
      </trkpt>
      <trkpt lat="48.32188" lon="6.80046">
        <ele>485.6</ele>
        <time>2018-02-05T14:41:17Z</time>
      </trkpt>
      <trkpt lat="48.32188" lon="6.80047">
        <ele>485.6</ele>
        <time>2018-02-05T14:41:39Z</time>
      </trkpt>
      <trkpt lat="48.32191" lon="6.80046">
        <ele>486.56</ele>
        <time>2018-02-05T14:42:05Z</time>
      </trkpt>
      <trkpt lat="48.32191" lon="6.80048">
        <ele>490.41</ele>
        <time>2018-02-05T14:42:27Z</time>
      </trkpt>
      <trkpt lat="48.32192" lon="6.80048">
        <ele>489.45</ele>
        <time>2018-02-05T14:42:45Z</time>
      </trkpt>
      <trkpt lat="48.32195" lon="6.80056">
        <ele>490.41</ele>
        <time>2018-02-05T14:43:12Z</time>
      </trkpt>
      <trkpt lat="48.32197" lon="6.80052">
        <ele>498.58</ele>
        <time>2018-02-05T14:43:42Z</time>
      </trkpt>
      <trkpt lat="48.32195" lon="6.80047">
        <ele>496.18</ele>
        <time>2018-02-05T14:43:54Z</time>
      </trkpt>
      <trkpt lat="48.3219" lon="6.80044">
        <ele>492.81</ele>
        <time>2018-02-05T14:44:21Z</time>
      </trkpt>
      <trkpt lat="48.32191" lon="6.80043">
        <ele>494.26</ele>
        <time>2018-02-05T14:44:45Z</time>
      </trkpt>
      <trkpt lat="48.32191" lon="6.80043">
        <ele>495.22</ele>
        <time>2018-02-05T14:45:16Z</time>
      </trkpt>
      <trkpt lat="48.32188" lon="6.80046">
        <ele>490.89</ele>
        <time>2018-02-05T14:45:45Z</time>
      </trkpt>
      <trkpt lat="48.3219" lon="6.80038">
        <ele>492.33</ele>
        <time>2018-02-05T14:46:14Z</time>
      </trkpt>
      <trkpt lat="48.32193" lon="6.80041">
        <ele>494.26</ele>
        <time>2018-02-05T14:46:45Z</time>
      </trkpt>
      <trkpt lat="48.32195" lon="6.80041">
        <ele>496.66</ele>
        <time>2018-02-05T14:47:14Z</time>
      </trkpt>
      <trkpt lat="48.32197" lon="6.8004">
        <ele>497.14</ele>
        <time>2018-02-05T14:47:40Z</time>
      </trkpt>
      <trkpt lat="48.32196" lon="6.80045">
        <ele>498.58</ele>
        <time>2018-02-05T14:48:09Z</time>
      </trkpt>
      <trkpt lat="48.32188" lon="6.80039">
        <ele>499.06</ele>
        <time>2018-02-05T14:48:38Z</time>
      </trkpt>
      <trkpt lat="48.32187" lon="6.80034">
        <ele>501.95</ele>
        <time>2018-02-05T14:49:08Z</time>
      </trkpt>
      <trkpt lat="48.32185" lon="6.80037">
        <ele>498.58</ele>
        <time>2018-02-05T14:49:34Z</time>
      </trkpt>
      <trkpt lat="48.32185" lon="6.8004">
        <ele>493.77</ele>
        <time>2018-02-05T14:49:55Z</time>
      </trkpt>
      <trkpt lat="48.32189" lon="6.8004">
        <ele>490.41</ele>
        <time>2018-02-05T14:50:28Z</time>
      </trkpt>
      <trkpt lat="48.32191" lon="6.80034">
        <ele>489.93</ele>
        <time>2018-02-05T14:50:46Z</time>
      </trkpt>
      <trkpt lat="48.32199" lon="6.80029">
        <ele>488.49</ele>
        <time>2018-02-05T14:50:54Z</time>
      </trkpt>
      <trkpt lat="48.32212" lon="6.8003">
        <ele>486.56</ele>
        <time>2018-02-05T14:51:07Z</time>
      </trkpt>
      <trkpt lat="48.32222" lon="6.80033">
        <ele>488.49</ele>
        <time>2018-02-05T14:51:19Z</time>
      </trkpt>
      <trkpt lat="48.32234" lon="6.80031">
        <ele>483.68</ele>
        <time>2018-02-05T14:51:30Z</time>
      </trkpt>
      <trkpt lat="48.32242" lon="6.80029">
        <ele>478.87</ele>
        <time>2018-02-05T14:51:40Z</time>
      </trkpt>
      <trkpt lat="48.32248" lon="6.80027">
        <ele>470.22</ele>
        <time>2018-02-05T14:51:50Z</time>
      </trkpt>
      <trkpt lat="48.32255" lon="6.80023">
        <ele>463.01</ele>
        <time>2018-02-05T14:52:01Z</time>
      </trkpt>
      <trkpt lat="48.32261" lon="6.80023">
        <ele>460.61</ele>
        <time>2018-02-05T14:52:07Z</time>
      </trkpt>
      <trkpt lat="48.32264" lon="6.80023">
        <ele>459.17</ele>
        <time>2018-02-05T14:52:11Z</time>
      </trkpt>
      <trkpt lat="48.32272" lon="6.80023">
        <ele>459.17</ele>
        <time>2018-02-05T14:52:17Z</time>
      </trkpt>
      <trkpt lat="48.32281" lon="6.80024">
        <ele>460.61</ele>
        <time>2018-02-05T14:52:26Z</time>
      </trkpt>
      <trkpt lat="48.32288" lon="6.80025">
        <ele>463.97</ele>
        <time>2018-02-05T14:52:31Z</time>
      </trkpt>
      <trkpt lat="48.32292" lon="6.80024">
        <ele>464.93</ele>
        <time>2018-02-05T14:52:34Z</time>
      </trkpt>
      <trkpt lat="48.32302" lon="6.80024">
        <ele>468.3</ele>
        <time>2018-02-05T14:52:44Z</time>
      </trkpt>
      <trkpt lat="48.32309" lon="6.80023">
        <ele>469.74</ele>
        <time>2018-02-05T14:52:51Z</time>
      </trkpt>
      <trkpt lat="48.32312" lon="6.80023">
        <ele>472.14</ele>
        <time>2018-02-05T14:52:53Z</time>
      </trkpt>
      <trkpt lat="48.32328" lon="6.80025">
        <ele>476.95</ele>
        <time>2018-02-05T14:53:07Z</time>
      </trkpt>
      <trkpt lat="48.32341" lon="6.80023">
        <ele>480.32</ele>
        <time>2018-02-05T14:53:18Z</time>
      </trkpt>
      <trkpt lat="48.3237" lon="6.80015">
        <ele>481.76</ele>
        <time>2018-02-05T14:53:41Z</time>
      </trkpt>
      <trkpt lat="48.32376" lon="6.80013">
        <ele>483.2</ele>
        <time>2018-02-05T14:53:45Z</time>
      </trkpt>
      <trkpt lat="48.32385" lon="6.80008">
        <ele>483.68</ele>
        <time>2018-02-05T14:53:54Z</time>
      </trkpt>
      <trkpt lat="48.32403" lon="6.80001">
        <ele>477.91</ele>
        <time>2018-02-05T14:54:12Z</time>
      </trkpt>
      <trkpt lat="48.32411" lon="6.80001">
        <ele>471.66</ele>
        <time>2018-02-05T14:54:23Z</time>
      </trkpt>
      <trkpt lat="48.32421" lon="6.80004">
        <ele>465.42</ele>
        <time>2018-02-05T14:54:35Z</time>
      </trkpt>
      <trkpt lat="48.32432" lon="6.80014">
        <ele>464.93</ele>
        <time>2018-02-05T14:54:48Z</time>
      </trkpt>
      <trkpt lat="48.32443" lon="6.80024">
        <ele>464.93</ele>
        <time>2018-02-05T14:55:00Z</time>
      </trkpt>
      <trkpt lat="48.32457" lon="6.80035">
        <ele>466.86</ele>
        <time>2018-02-05T14:55:13Z</time>
      </trkpt>
      <trkpt lat="48.32473" lon="6.80023">
        <ele>471.66</ele>
        <time>2018-02-05T14:55:28Z</time>
      </trkpt>
      <trkpt lat="48.32475" lon="6.8002">
        <ele>472.63</ele>
        <time>2018-02-05T14:55:32Z</time>
      </trkpt>
      <trkpt lat="48.32474" lon="6.80005">
        <ele>472.14</ele>
        <time>2018-02-05T14:55:43Z</time>
      </trkpt>
      <trkpt lat="48.32473" lon="6.79982">
        <ele>470.22</ele>
        <time>2018-02-05T14:55:56Z</time>
      </trkpt>
      <trkpt lat="48.32473" lon="6.79965">
        <ele>471.18</ele>
        <time>2018-02-05T14:56:08Z</time>
      </trkpt>
      <trkpt lat="48.32477" lon="6.79944">
        <ele>472.63</ele>
        <time>2018-02-05T14:56:21Z</time>
      </trkpt>
      <trkpt lat="48.32483" lon="6.7992">
        <ele>473.11</ele>
        <time>2018-02-05T14:56:35Z</time>
      </trkpt>
      <trkpt lat="48.32484" lon="6.79899">
        <ele>473.11</ele>
        <time>2018-02-05T14:56:47Z</time>
      </trkpt>
      <trkpt lat="48.32482" lon="6.79879">
        <ele>471.18</ele>
        <time>2018-02-05T14:56:59Z</time>
      </trkpt>
      <trkpt lat="48.32481" lon="6.79866">
        <ele>470.22</ele>
        <time>2018-02-05T14:57:09Z</time>
      </trkpt>
      <trkpt lat="48.32476" lon="6.79837">
        <ele>468.78</ele>
        <time>2018-02-05T14:57:22Z</time>
      </trkpt>
      <trkpt lat="48.32473" lon="6.79822">
        <ele>468.78</ele>
        <time>2018-02-05T14:57:34Z</time>
      </trkpt>
      <trkpt lat="48.32469" lon="6.79806">
        <ele>468.78</ele>
        <time>2018-02-05T14:57:46Z</time>
      </trkpt>
      <trkpt lat="48.32469" lon="6.79803">
        <ele>469.26</ele>
        <time>2018-02-05T14:57:48Z</time>
      </trkpt>
      <trkpt lat="48.32469" lon="6.79788">
        <ele>471.18</ele>
        <time>2018-02-05T14:57:56Z</time>
      </trkpt>
      <trkpt lat="48.32471" lon="6.79777">
        <ele>473.59</ele>
        <time>2018-02-05T14:58:01Z</time>
      </trkpt>
      <trkpt lat="48.32474" lon="6.7976">
        <ele>472.14</ele>
        <time>2018-02-05T14:58:13Z</time>
      </trkpt>
      <trkpt lat="48.32471" lon="6.79743">
        <ele>468.78</ele>
        <time>2018-02-05T14:58:25Z</time>
      </trkpt>
      <trkpt lat="48.32473" lon="6.79734">
        <ele>466.38</ele>
        <time>2018-02-05T14:58:37Z</time>
      </trkpt>
      <trkpt lat="48.32476" lon="6.79731">
        <ele>466.38</ele>
        <time>2018-02-05T14:59:02Z</time>
      </trkpt>
      <trkpt lat="48.32476" lon="6.79738">
        <ele>472.63</ele>
        <time>2018-02-05T14:59:30Z</time>
      </trkpt>
      <trkpt lat="48.32475" lon="6.79735">
        <ele>473.11</ele>
        <time>2018-02-05T14:59:53Z</time>
      </trkpt>
      <trkpt lat="48.32474" lon="6.79735">
        <ele>474.55</ele>
        <time>2018-02-05T15:00:12Z</time>
      </trkpt>
      <trkpt lat="48.32469" lon="6.79734">
        <ele>471.66</ele>
        <time>2018-02-05T15:00:34Z</time>
      </trkpt>
      <trkpt lat="48.32473" lon="6.79732">
        <ele>470.7</ele>
        <time>2018-02-05T15:00:55Z</time>
      </trkpt>
      <trkpt lat="48.32471" lon="6.79737">
        <ele>467.82</ele>
        <time>2018-02-05T15:01:13Z</time>
      </trkpt>
      <trkpt lat="48.32472" lon="6.79735">
        <ele>474.55</ele>
        <time>2018-02-05T15:01:33Z</time>
      </trkpt>
      <trkpt lat="48.3247" lon="6.79738">
        <ele>474.55</ele>
        <time>2018-02-05T15:01:52Z</time>
      </trkpt>
      <trkpt lat="48.32468" lon="6.79738">
        <ele>471.18</ele>
        <time>2018-02-05T15:02:06Z</time>
      </trkpt>
      <trkpt lat="48.32461" lon="6.79744">
        <ele>469.74</ele>
        <time>2018-02-05T15:02:30Z</time>
      </trkpt>
      <trkpt lat="48.32468" lon="6.79735">
        <ele>467.82</ele>
        <time>2018-02-05T15:03:06Z</time>
      </trkpt>
      <trkpt lat="48.32473" lon="6.79737">
        <ele>471.18</ele>
        <time>2018-02-05T15:03:30Z</time>
      </trkpt>
      <trkpt lat="48.32472" lon="6.79737">
        <ele>471.66</ele>
        <time>2018-02-05T15:03:57Z</time>
      </trkpt>
      <trkpt lat="48.32469" lon="6.79724">
        <ele>469.26</ele>
        <time>2018-02-05T15:04:10Z</time>
      </trkpt>
      <trkpt lat="48.32466" lon="6.79706">
        <ele>464.45</ele>
        <time>2018-02-05T15:04:25Z</time>
      </trkpt>
      <trkpt lat="48.32458" lon="6.79675">
        <ele>462.53</ele>
        <time>2018-02-05T15:04:42Z</time>
      </trkpt>
      <trkpt lat="48.3245" lon="6.79666">
        <ele>462.53</ele>
        <time>2018-02-05T15:04:51Z</time>
      </trkpt>
      <trkpt lat="48.32438" lon="6.7965">
        <ele>463.01</ele>
        <time>2018-02-05T15:05:09Z</time>
      </trkpt>
      <trkpt lat="48.32433" lon="6.79643">
        <ele>468.3</ele>
        <time>2018-02-05T15:05:19Z</time>
      </trkpt>
      <trkpt lat="48.32417" lon="6.79649">
        <ele>471.66</ele>
        <time>2018-02-05T15:05:35Z</time>
      </trkpt>
      <trkpt lat="48.32409" lon="6.79649">
        <ele>472.14</ele>
        <time>2018-02-05T15:05:42Z</time>
      </trkpt>
      <trkpt lat="48.32397" lon="6.7964">
        <ele>473.11</ele>
        <time>2018-02-05T15:05:54Z</time>
      </trkpt>
      <trkpt lat="48.32391" lon="6.79638">
        <ele>474.55</ele>
        <time>2018-02-05T15:05:59Z</time>
      </trkpt>
      <trkpt lat="48.32379" lon="6.79638">
        <ele>475.51</ele>
        <time>2018-02-05T15:06:12Z</time>
      </trkpt>
      <trkpt lat="48.32369" lon="6.79637">
        <ele>477.43</ele>
        <time>2018-02-05T15:06:23Z</time>
      </trkpt>
      <trkpt lat="48.32359" lon="6.79639">
        <ele>479.84</ele>
        <time>2018-02-05T15:06:35Z</time>
      </trkpt>
      <trkpt lat="48.32348" lon="6.79639">
        <ele>480.8</ele>
        <time>2018-02-05T15:06:47Z</time>
      </trkpt>
      <trkpt lat="48.32331" lon="6.79629">
        <ele>481.28</ele>
        <time>2018-02-05T15:07:01Z</time>
      </trkpt>
      <trkpt lat="48.32323" lon="6.79626">
        <ele>481.28</ele>
        <time>2018-02-05T15:07:11Z</time>
      </trkpt>
      <trkpt lat="48.32312" lon="6.79621">
        <ele>481.28</ele>
        <time>2018-02-05T15:07:24Z</time>
      </trkpt>
      <trkpt lat="48.32311" lon="6.7962">
        <ele>481.28</ele>
        <time>2018-02-05T15:07:25Z</time>
      </trkpt>
      <trkpt lat="48.32305" lon="6.79616">
        <ele>480.8</ele>
        <time>2018-02-05T15:07:31Z</time>
      </trkpt>
      <trkpt lat="48.32299" lon="6.79614">
        <ele>481.28</ele>
        <time>2018-02-05T15:07:36Z</time>
      </trkpt>
      <trkpt lat="48.32283" lon="6.79607">
        <ele>485.12</ele>
        <time>2018-02-05T15:07:48Z</time>
      </trkpt>
      <trkpt lat="48.3227" lon="6.79605">
        <ele>485.6</ele>
        <time>2018-02-05T15:08:00Z</time>
      </trkpt>
      <trkpt lat="48.3226" lon="6.79604">
        <ele>485.6</ele>
        <time>2018-02-05T15:08:12Z</time>
      </trkpt>
      <trkpt lat="48.32248" lon="6.79605">
        <ele>485.6</ele>
        <time>2018-02-05T15:08:25Z</time>
      </trkpt>
      <trkpt lat="48.32235" lon="6.79599">
        <ele>486.56</ele>
        <time>2018-02-05T15:08:36Z</time>
      </trkpt>
      <trkpt lat="48.32231" lon="6.79592">
        <ele>486.08</ele>
        <time>2018-02-05T15:08:40Z</time>
      </trkpt>
      <trkpt lat="48.32227" lon="6.79589">
        <ele>485.12</ele>
        <time>2018-02-05T15:08:43Z</time>
      </trkpt>
      <trkpt lat="48.3222" lon="6.79581">
        <ele>479.84</ele>
        <time>2018-02-05T15:08:54Z</time>
      </trkpt>
      <trkpt lat="48.32216" lon="6.79579">
        <ele>479.84</ele>
        <time>2018-02-05T15:08:59Z</time>
      </trkpt>
      <trkpt lat="48.32211" lon="6.79574">
        <ele>480.32</ele>
        <time>2018-02-05T15:09:05Z</time>
      </trkpt>
      <trkpt lat="48.32204" lon="6.79568">
        <ele>481.76</ele>
        <time>2018-02-05T15:09:12Z</time>
      </trkpt>
      <trkpt lat="48.3219" lon="6.79565">
        <ele>484.16</ele>
        <time>2018-02-05T15:09:23Z</time>
      </trkpt>
      <trkpt lat="48.3218" lon="6.79559">
        <ele>486.08</ele>
        <time>2018-02-05T15:09:34Z</time>
      </trkpt>
      <trkpt lat="48.32169" lon="6.79555">
        <ele>487.05</ele>
        <time>2018-02-05T15:09:46Z</time>
      </trkpt>
      <trkpt lat="48.32167" lon="6.79554">
        <ele>486.56</ele>
        <time>2018-02-05T15:09:49Z</time>
      </trkpt>
      <trkpt lat="48.32158" lon="6.7955">
        <ele>489.93</ele>
        <time>2018-02-05T15:09:56Z</time>
      </trkpt>
      <trkpt lat="48.3215" lon="6.79544">
        <ele>491.85</ele>
        <time>2018-02-05T15:10:01Z</time>
      </trkpt>
      <trkpt lat="48.32144" lon="6.79544">
        <ele>492.81</ele>
        <time>2018-02-05T15:10:07Z</time>
      </trkpt>
      <trkpt lat="48.32134" lon="6.79536">
        <ele>492.81</ele>
        <time>2018-02-05T15:10:15Z</time>
      </trkpt>
      <trkpt lat="48.3213" lon="6.79535">
        <ele>493.77</ele>
        <time>2018-02-05T15:10:17Z</time>
      </trkpt>
      <trkpt lat="48.32122" lon="6.79535">
        <ele>496.18</ele>
        <time>2018-02-05T15:10:22Z</time>
      </trkpt>
      <trkpt lat="48.3211" lon="6.79535">
        <ele>498.1</ele>
        <time>2018-02-05T15:10:34Z</time>
      </trkpt>
      <trkpt lat="48.32105" lon="6.79537">
        <ele>497.14</ele>
        <time>2018-02-05T15:10:38Z</time>
      </trkpt>
      <trkpt lat="48.32092" lon="6.7954">
        <ele>491.85</ele>
        <time>2018-02-05T15:10:52Z</time>
      </trkpt>
      <trkpt lat="48.32079" lon="6.79532">
        <ele>489.93</ele>
        <time>2018-02-05T15:11:06Z</time>
      </trkpt>
      <trkpt lat="48.32076" lon="6.7953">
        <ele>488.49</ele>
        <time>2018-02-05T15:11:08Z</time>
      </trkpt>
      <trkpt lat="48.32071" lon="6.79529">
        <ele>488.01</ele>
        <time>2018-02-05T15:11:11Z</time>
      </trkpt>
      <trkpt lat="48.32058" lon="6.79512">
        <ele>487.05</ele>
        <time>2018-02-05T15:11:25Z</time>
      </trkpt>
      <trkpt lat="48.32048" lon="6.79497">
        <ele>479.35</ele>
        <time>2018-02-05T15:11:40Z</time>
      </trkpt>
      <trkpt lat="48.32045" lon="6.79488">
        <ele>475.99</ele>
        <time>2018-02-05T15:11:47Z</time>
      </trkpt>
      <trkpt lat="48.32043" lon="6.79485">
        <ele>475.03</ele>
        <time>2018-02-05T15:11:50Z</time>
      </trkpt>
      <trkpt lat="48.32037" lon="6.79476">
        <ele>474.55</ele>
        <time>2018-02-05T15:11:58Z</time>
      </trkpt>
      <trkpt lat="48.32033" lon="6.79465">
        <ele>473.59</ele>
        <time>2018-02-05T15:12:09Z</time>
      </trkpt>
      <trkpt lat="48.32024" lon="6.79442">
        <ele>473.59</ele>
        <time>2018-02-05T15:12:22Z</time>
      </trkpt>
      <trkpt lat="48.32021" lon="6.79437">
        <ele>474.07</ele>
        <time>2018-02-05T15:12:26Z</time>
      </trkpt>
      <trkpt lat="48.3202" lon="6.79434">
        <ele>474.55</ele>
        <time>2018-02-05T15:12:28Z</time>
      </trkpt>
      <trkpt lat="48.32014" lon="6.79418">
        <ele>477.43</ele>
        <time>2018-02-05T15:12:39Z</time>
      </trkpt>
      <trkpt lat="48.32012" lon="6.79402">
        <ele>478.87</ele>
        <time>2018-02-05T15:12:50Z</time>
      </trkpt>
      <trkpt lat="48.32011" lon="6.79397">
        <ele>479.84</ele>
        <time>2018-02-05T15:12:53Z</time>
      </trkpt>
      <trkpt lat="48.3201" lon="6.79378">
        <ele>483.2</ele>
        <time>2018-02-05T15:13:05Z</time>
      </trkpt>
      <trkpt lat="48.32008" lon="6.79364">
        <ele>485.6</ele>
        <time>2018-02-05T15:13:13Z</time>
      </trkpt>
      <trkpt lat="48.32007" lon="6.7934">
        <ele>486.08</ele>
        <time>2018-02-05T15:13:27Z</time>
      </trkpt>
      <trkpt lat="48.32007" lon="6.79338">
        <ele>482.72</ele>
        <time>2018-02-05T15:13:31Z</time>
      </trkpt>
      <trkpt lat="48.32009" lon="6.79334">
        <ele>480.32</ele>
        <time>2018-02-05T15:13:36Z</time>
      </trkpt>
      <trkpt lat="48.3201" lon="6.79308">
        <ele>480.8</ele>
        <time>2018-02-05T15:13:47Z</time>
      </trkpt>
      <trkpt lat="48.32014" lon="6.79281">
        <ele>485.12</ele>
        <time>2018-02-05T15:13:59Z</time>
      </trkpt>
      <trkpt lat="48.32016" lon="6.79273">
        <ele>483.68</ele>
        <time>2018-02-05T15:14:06Z</time>
      </trkpt>
      <trkpt lat="48.32024" lon="6.79259">
        <ele>481.28</ele>
        <time>2018-02-05T15:14:19Z</time>
      </trkpt>
      <trkpt lat="48.32031" lon="6.79243">
        <ele>480.8</ele>
        <time>2018-02-05T15:14:31Z</time>
      </trkpt>
      <trkpt lat="48.32037" lon="6.79229">
        <ele>481.76</ele>
        <time>2018-02-05T15:14:41Z</time>
      </trkpt>
      <trkpt lat="48.32038" lon="6.79207">
        <ele>481.28</ele>
        <time>2018-02-05T15:14:54Z</time>
      </trkpt>
      <trkpt lat="48.32041" lon="6.79195">
        <ele>479.84</ele>
        <time>2018-02-05T15:15:02Z</time>
      </trkpt>
      <trkpt lat="48.3204" lon="6.79174">
        <ele>480.8</ele>
        <time>2018-02-05T15:15:11Z</time>
      </trkpt>
      <trkpt lat="48.32042" lon="6.7915">
        <ele>480.8</ele>
        <time>2018-02-05T15:15:23Z</time>
      </trkpt>
      <trkpt lat="48.32041" lon="6.79147">
        <ele>481.76</ele>
        <time>2018-02-05T15:15:25Z</time>
      </trkpt>
      <trkpt lat="48.32041" lon="6.79125">
        <ele>484.16</ele>
        <time>2018-02-05T15:15:38Z</time>
      </trkpt>
      <trkpt lat="48.32039" lon="6.79108">
        <ele>485.12</ele>
        <time>2018-02-05T15:15:50Z</time>
      </trkpt>
      <trkpt lat="48.32033" lon="6.79099">
        <ele>488.01</ele>
        <time>2018-02-05T15:16:01Z</time>
      </trkpt>
      <trkpt lat="48.32032" lon="6.79098">
        <ele>488.49</ele>
        <time>2018-02-05T15:16:02Z</time>
      </trkpt>
      <trkpt lat="48.3202" lon="6.79094">
        <ele>490.89</ele>
        <time>2018-02-05T15:16:14Z</time>
      </trkpt>
      <trkpt lat="48.32019" lon="6.79095">
        <ele>490.89</ele>
        <time>2018-02-05T15:16:15Z</time>
      </trkpt>
      <trkpt lat="48.32016" lon="6.79097">
        <ele>491.37</ele>
        <time>2018-02-05T15:16:18Z</time>
      </trkpt>
      <trkpt lat="48.32004" lon="6.79102">
        <ele>490.89</ele>
        <time>2018-02-05T15:16:30Z</time>
      </trkpt>
      <trkpt lat="48.31999" lon="6.79105">
        <ele>490.41</ele>
        <time>2018-02-05T15:16:36Z</time>
      </trkpt>
      <trkpt lat="48.31994" lon="6.79111">
        <ele>491.37</ele>
        <time>2018-02-05T15:16:41Z</time>
      </trkpt>
      <trkpt lat="48.31989" lon="6.79116">
        <ele>491.85</ele>
        <time>2018-02-05T15:16:47Z</time>
      </trkpt>
      <trkpt lat="48.31987" lon="6.79118">
        <ele>492.33</ele>
        <time>2018-02-05T15:16:49Z</time>
      </trkpt>
      <trkpt lat="48.31981" lon="6.79122">
        <ele>493.77</ele>
        <time>2018-02-05T15:16:55Z</time>
      </trkpt>
      <trkpt lat="48.31975" lon="6.79129">
        <ele>493.77</ele>
        <time>2018-02-05T15:17:01Z</time>
      </trkpt>
      <trkpt lat="48.31972" lon="6.79129">
        <ele>493.77</ele>
        <time>2018-02-05T15:17:03Z</time>
      </trkpt>
      <trkpt lat="48.31966" lon="6.79131">
        <ele>496.18</ele>
        <time>2018-02-05T15:17:10Z</time>
      </trkpt>
      <trkpt lat="48.31953" lon="6.79127">
        <ele>500.02</ele>
        <time>2018-02-05T15:17:23Z</time>
      </trkpt>
      <trkpt lat="48.31952" lon="6.79127">
        <ele>500.98</ele>
        <time>2018-02-05T15:17:24Z</time>
      </trkpt>
      <trkpt lat="48.31941" lon="6.79115">
        <ele>496.66</ele>
        <time>2018-02-05T15:17:37Z</time>
      </trkpt>
      <trkpt lat="48.31936" lon="6.79111">
        <ele>493.29</ele>
        <time>2018-02-05T15:17:41Z</time>
      </trkpt>
      <trkpt lat="48.31935" lon="6.79109">
        <ele>492.81</ele>
        <time>2018-02-05T15:17:43Z</time>
      </trkpt>
      <trkpt lat="48.31923" lon="6.79095">
        <ele>489.93</ele>
        <time>2018-02-05T15:17:56Z</time>
      </trkpt>
      <trkpt lat="48.31921" lon="6.79093">
        <ele>489.45</ele>
        <time>2018-02-05T15:17:58Z</time>
      </trkpt>
      <trkpt lat="48.31919" lon="6.79091">
        <ele>489.45</ele>
        <time>2018-02-05T15:18:00Z</time>
      </trkpt>
      <trkpt lat="48.31918" lon="6.79086">
        <ele>488.01</ele>
        <time>2018-02-05T15:18:04Z</time>
      </trkpt>
      <trkpt lat="48.31911" lon="6.79071">
        <ele>485.12</ele>
        <time>2018-02-05T15:18:16Z</time>
      </trkpt>
      <trkpt lat="48.3191" lon="6.79068">
        <ele>485.12</ele>
        <time>2018-02-05T15:18:19Z</time>
      </trkpt>
      <trkpt lat="48.31907" lon="6.79053">
        <ele>487.05</ele>
        <time>2018-02-05T15:18:29Z</time>
      </trkpt>
      <trkpt lat="48.31903" lon="6.79032">
        <ele>486.08</ele>
        <time>2018-02-05T15:18:41Z</time>
      </trkpt>
      <trkpt lat="48.31901" lon="6.79008">
        <ele>486.08</ele>
        <time>2018-02-05T15:18:56Z</time>
      </trkpt>
      <trkpt lat="48.31894" lon="6.78992">
        <ele>481.76</ele>
        <time>2018-02-05T15:19:07Z</time>
      </trkpt>
      <trkpt lat="48.31893" lon="6.78991">
        <ele>480.32</ele>
        <time>2018-02-05T15:19:10Z</time>
      </trkpt>
      <trkpt lat="48.31885" lon="6.78984">
        <ele>480.32</ele>
        <time>2018-02-05T15:19:18Z</time>
      </trkpt>
      <trkpt lat="48.31871" lon="6.78982">
        <ele>487.05</ele>
        <time>2018-02-05T15:19:31Z</time>
      </trkpt>
      <trkpt lat="48.31863" lon="6.78983">
        <ele>488.97</ele>
        <time>2018-02-05T15:19:36Z</time>
      </trkpt>
      <trkpt lat="48.31858" lon="6.78984">
        <ele>489.45</ele>
        <time>2018-02-05T15:19:40Z</time>
      </trkpt>
      <trkpt lat="48.31849" lon="6.7899">
        <ele>491.85</ele>
        <time>2018-02-05T15:19:50Z</time>
      </trkpt>
      <trkpt lat="48.31846" lon="6.78995">
        <ele>492.81</ele>
        <time>2018-02-05T15:19:54Z</time>
      </trkpt>
      <trkpt lat="48.31845" lon="6.78998">
        <ele>492.33</ele>
        <time>2018-02-05T15:19:56Z</time>
      </trkpt>
      <trkpt lat="48.31841" lon="6.79003">
        <ele>491.85</ele>
        <time>2018-02-05T15:20:01Z</time>
      </trkpt>
      <trkpt lat="48.31841" lon="6.79006">
        <ele>491.37</ele>
        <time>2018-02-05T15:20:03Z</time>
      </trkpt>
      <trkpt lat="48.31836" lon="6.79019">
        <ele>489.45</ele>
        <time>2018-02-05T15:20:14Z</time>
      </trkpt>
      <trkpt lat="48.31832" lon="6.79032">
        <ele>490.89</ele>
        <time>2018-02-05T15:20:22Z</time>
      </trkpt>
      <trkpt lat="48.31828" lon="6.79038">
        <ele>490.41</ele>
        <time>2018-02-05T15:20:28Z</time>
      </trkpt>
      <trkpt lat="48.31826" lon="6.79042">
        <ele>490.41</ele>
        <time>2018-02-05T15:20:30Z</time>
      </trkpt>
      <trkpt lat="48.31824" lon="6.79044">
        <ele>490.41</ele>
        <time>2018-02-05T15:20:32Z</time>
      </trkpt>
      <trkpt lat="48.31823" lon="6.79046">
        <ele>491.37</ele>
        <time>2018-02-05T15:20:34Z</time>
      </trkpt>
      <trkpt lat="48.3182" lon="6.79048">
        <ele>492.81</ele>
        <time>2018-02-05T15:20:37Z</time>
      </trkpt>
      <trkpt lat="48.31809" lon="6.79053">
        <ele>495.7</ele>
        <time>2018-02-05T15:20:48Z</time>
      </trkpt>
      <trkpt lat="48.31803" lon="6.79054">
        <ele>497.62</ele>
        <time>2018-02-05T15:20:53Z</time>
      </trkpt>
      <trkpt lat="48.318" lon="6.79053">
        <ele>498.1</ele>
        <time>2018-02-05T15:20:56Z</time>
      </trkpt>
      <trkpt lat="48.31789" lon="6.79048">
        <ele>499.06</ele>
        <time>2018-02-05T15:21:07Z</time>
      </trkpt>
      <trkpt lat="48.31774" lon="6.79042">
        <ele>502.43</ele>
        <time>2018-02-05T15:21:21Z</time>
      </trkpt>
      <trkpt lat="48.31772" lon="6.79041">
        <ele>503.39</ele>
        <time>2018-02-05T15:21:24Z</time>
      </trkpt>
      <trkpt lat="48.3177" lon="6.7904">
        <ele>504.35</ele>
        <time>2018-02-05T15:21:26Z</time>
      </trkpt>
      <trkpt lat="48.31752" lon="6.79032">
        <ele>512.04</ele>
        <time>2018-02-05T15:21:42Z</time>
      </trkpt>
      <trkpt lat="48.31738" lon="6.79033">
        <ele>515.4</ele>
        <time>2018-02-05T15:21:54Z</time>
      </trkpt>
      <trkpt lat="48.31725" lon="6.79037">
        <ele>510.6</ele>
        <time>2018-02-05T15:22:07Z</time>
      </trkpt>
      <trkpt lat="48.31724" lon="6.79039">
        <ele>509.64</ele>
        <time>2018-02-05T15:22:09Z</time>
      </trkpt>
      <trkpt lat="48.31719" lon="6.79047">
        <ele>507.23</ele>
        <time>2018-02-05T15:22:15Z</time>
      </trkpt>
      <trkpt lat="48.31718" lon="6.7905">
        <ele>506.27</ele>
        <time>2018-02-05T15:22:17Z</time>
      </trkpt>
      <trkpt lat="48.31711" lon="6.79066">
        <ele>503.87</ele>
        <time>2018-02-05T15:22:29Z</time>
      </trkpt>
      <trkpt lat="48.31703" lon="6.79081">
        <ele>499.06</ele>
        <time>2018-02-05T15:22:44Z</time>
      </trkpt>
      <trkpt lat="48.31702" lon="6.7908">
        <ele>499.06</ele>
        <time>2018-02-05T15:23:01Z</time>
      </trkpt>
      <trkpt lat="48.31701" lon="6.79078">
        <ele>500.02</ele>
        <time>2018-02-05T15:23:16Z</time>
      </trkpt>
      <trkpt lat="48.31701" lon="6.79077">
        <ele>500.98</ele>
        <time>2018-02-05T15:23:38Z</time>
      </trkpt>
      <trkpt lat="48.31699" lon="6.79078">
        <ele>502.43</ele>
        <time>2018-02-05T15:24:04Z</time>
      </trkpt>
      <trkpt lat="48.31696" lon="6.79077">
        <ele>502.91</ele>
        <time>2018-02-05T15:24:31Z</time>
      </trkpt>
      <trkpt lat="48.317" lon="6.79078">
        <ele>503.87</ele>
        <time>2018-02-05T15:25:02Z</time>
      </trkpt>
      <trkpt lat="48.31701" lon="6.79069">
        <ele>511.08</ele>
        <time>2018-02-05T15:25:29Z</time>
      </trkpt>
      <trkpt lat="48.31696" lon="6.79071">
        <ele>513.96</ele>
        <time>2018-02-05T15:25:53Z</time>
      </trkpt>
      <trkpt lat="48.31696" lon="6.79076">
        <ele>513.96</ele>
        <time>2018-02-05T15:26:24Z</time>
      </trkpt>
      <trkpt lat="48.31694" lon="6.79076">
        <ele>517.33</ele>
        <time>2018-02-05T15:26:49Z</time>
      </trkpt>
      <trkpt lat="48.31697" lon="6.79082">
        <ele>512.52</ele>
        <time>2018-02-05T15:27:19Z</time>
      </trkpt>
      <trkpt lat="48.31699" lon="6.79084">
        <ele>507.71</ele>
        <time>2018-02-05T15:27:39Z</time>
      </trkpt>
      <trkpt lat="48.31698" lon="6.79083">
        <ele>505.31</ele>
        <time>2018-02-05T15:27:56Z</time>
      </trkpt>
      <trkpt lat="48.31694" lon="6.79091">
        <ele>503.39</ele>
        <time>2018-02-05T15:28:08Z</time>
      </trkpt>
      <trkpt lat="48.3169" lon="6.791">
        <ele>499.06</ele>
        <time>2018-02-05T15:28:22Z</time>
      </trkpt>
      <trkpt lat="48.31682" lon="6.79106">
        <ele>490.41</ele>
        <time>2018-02-05T15:28:36Z</time>
      </trkpt>
      <trkpt lat="48.31673" lon="6.79116">
        <ele>488.01</ele>
        <time>2018-02-05T15:28:49Z</time>
      </trkpt>
      <trkpt lat="48.31667" lon="6.79121">
        <ele>487.05</ele>
        <time>2018-02-05T15:29:02Z</time>
      </trkpt>
      <trkpt lat="48.3166" lon="6.79129">
        <ele>486.56</ele>
        <time>2018-02-05T15:29:17Z</time>
      </trkpt>
      <trkpt lat="48.31649" lon="6.79138">
        <ele>484.64</ele>
        <time>2018-02-05T15:29:31Z</time>
      </trkpt>
      <trkpt lat="48.31637" lon="6.79151">
        <ele>481.28</ele>
        <time>2018-02-05T15:29:47Z</time>
      </trkpt>
      <trkpt lat="48.31625" lon="6.79158">
        <ele>476.47</ele>
        <time>2018-02-05T15:30:01Z</time>
      </trkpt>
      <trkpt lat="48.31609" lon="6.79167">
        <ele>475.03</ele>
        <time>2018-02-05T15:30:17Z</time>
      </trkpt>
      <trkpt lat="48.31605" lon="6.7917">
        <ele>475.51</ele>
        <time>2018-02-05T15:30:22Z</time>
      </trkpt>
      <trkpt lat="48.31598" lon="6.79177">
        <ele>474.07</ele>
        <time>2018-02-05T15:30:34Z</time>
      </trkpt>
      <trkpt lat="48.31585" lon="6.79174">
        <ele>475.51</ele>
        <time>2018-02-05T15:30:48Z</time>
      </trkpt>
      <trkpt lat="48.31582" lon="6.79171">
        <ele>475.51</ele>
        <time>2018-02-05T15:30:53Z</time>
      </trkpt>
      <trkpt lat="48.31571" lon="6.7916">
        <ele>473.11</ele>
        <time>2018-02-05T15:31:06Z</time>
      </trkpt>
      <trkpt lat="48.3156" lon="6.79147">
        <ele>469.74</ele>
        <time>2018-02-05T15:31:18Z</time>
      </trkpt>
      <trkpt lat="48.31547" lon="6.79136">
        <ele>464.93</ele>
        <time>2018-02-05T15:31:31Z</time>
      </trkpt>
      <trkpt lat="48.31538" lon="6.79131">
        <ele>469.74</ele>
        <time>2018-02-05T15:31:43Z</time>
      </trkpt>
      <trkpt lat="48.31533" lon="6.79129">
        <ele>467.82</ele>
        <time>2018-02-05T15:31:53Z</time>
      </trkpt>
      <trkpt lat="48.31527" lon="6.79119">
        <ele>467.82</ele>
        <time>2018-02-05T15:32:04Z</time>
      </trkpt>
      <trkpt lat="48.31521" lon="6.79112">
        <ele>471.18</ele>
        <time>2018-02-05T15:32:17Z</time>
      </trkpt>
      <trkpt lat="48.31511" lon="6.79103">
        <ele>471.66</ele>
        <time>2018-02-05T15:32:31Z</time>
      </trkpt>
      <trkpt lat="48.31504" lon="6.79094">
        <ele>470.7</ele>
        <time>2018-02-05T15:32:43Z</time>
      </trkpt>
      <trkpt lat="48.31496" lon="6.79085">
        <ele>470.22</ele>
        <time>2018-02-05T15:32:55Z</time>
      </trkpt>
      <trkpt lat="48.31488" lon="6.79077">
        <ele>468.78</ele>
        <time>2018-02-05T15:33:07Z</time>
      </trkpt>
      <trkpt lat="48.31476" lon="6.79076">
        <ele>469.74</ele>
        <time>2018-02-05T15:33:19Z</time>
      </trkpt>
      <trkpt lat="48.31466" lon="6.79076">
        <ele>470.22</ele>
        <time>2018-02-05T15:33:30Z</time>
      </trkpt>
      <trkpt lat="48.31459" lon="6.79073">
        <ele>469.74</ele>
        <time>2018-02-05T15:33:37Z</time>
      </trkpt>
      <trkpt lat="48.31448" lon="6.79078">
        <ele>472.63</ele>
        <time>2018-02-05T15:33:47Z</time>
      </trkpt>
      <trkpt lat="48.31437" lon="6.79079">
        <ele>478.39</ele>
        <time>2018-02-05T15:34:02Z</time>
      </trkpt>
      <trkpt lat="48.31423" lon="6.79075">
        <ele>474.55</ele>
        <time>2018-02-05T15:34:18Z</time>
      </trkpt>
      <trkpt lat="48.31414" lon="6.79065">
        <ele>470.7</ele>
        <time>2018-02-05T15:34:32Z</time>
      </trkpt>
      <trkpt lat="48.314" lon="6.79053">
        <ele>458.21</ele>
        <time>2018-02-05T15:34:48Z</time>
      </trkpt>
      <trkpt lat="48.31392" lon="6.79046">
        <ele>445.23</ele>
        <time>2018-02-05T15:35:02Z</time>
      </trkpt>
      <trkpt lat="48.31381" lon="6.79043">
        <ele>438.98</ele>
        <time>2018-02-05T15:35:15Z</time>
      </trkpt>
      <trkpt lat="48.31371" lon="6.79039">
        <ele>438.98</ele>
        <time>2018-02-05T15:35:25Z</time>
      </trkpt>
      <trkpt lat="48.31352" lon="6.79041">
        <ele>438.02</ele>
        <time>2018-02-05T15:35:40Z</time>
      </trkpt>
      <trkpt lat="48.31344" lon="6.79042">
        <ele>433.21</ele>
        <time>2018-02-05T15:35:52Z</time>
      </trkpt>
      <trkpt lat="48.31338" lon="6.79043">
        <ele>430.81</ele>
        <time>2018-02-05T15:36:02Z</time>
      </trkpt>
      <trkpt lat="48.31336" lon="6.79043">
        <ele>429.85</ele>
        <time>2018-02-05T15:36:06Z</time>
      </trkpt>
      <trkpt lat="48.31323" lon="6.79049">
        <ele>430.81</ele>
        <time>2018-02-05T15:36:18Z</time>
      </trkpt>
      <trkpt lat="48.31312" lon="6.79051">
        <ele>433.21</ele>
        <time>2018-02-05T15:36:28Z</time>
      </trkpt>
      <trkpt lat="48.3131" lon="6.79053">
        <ele>434.17</ele>
        <time>2018-02-05T15:36:30Z</time>
      </trkpt>
      <trkpt lat="48.31301" lon="6.79055">
        <ele>435.13</ele>
        <time>2018-02-05T15:36:37Z</time>
      </trkpt>
      <trkpt lat="48.31294" lon="6.79057">
        <ele>435.13</ele>
        <time>2018-02-05T15:36:43Z</time>
      </trkpt>
      <trkpt lat="48.31281" lon="6.79059">
        <ele>431.77</ele>
        <time>2018-02-05T15:36:56Z</time>
      </trkpt>
      <trkpt lat="48.31279" lon="6.79056">
        <ele>429.37</ele>
        <time>2018-02-05T15:37:09Z</time>
      </trkpt>
      <trkpt lat="48.31276" lon="6.79052">
        <ele>423.12</ele>
        <time>2018-02-05T15:37:23Z</time>
      </trkpt>
      <trkpt lat="48.31281" lon="6.7907">
        <ele>421.19</ele>
        <time>2018-02-05T15:37:42Z</time>
      </trkpt>
      <trkpt lat="48.31275" lon="6.79057">
        <ele>422.16</ele>
        <time>2018-02-05T15:38:03Z</time>
      </trkpt>
      <trkpt lat="48.31275" lon="6.79051">
        <ele>421.68</ele>
        <time>2018-02-05T15:38:20Z</time>
      </trkpt>
      <trkpt lat="48.31274" lon="6.79051">
        <ele>420.23</ele>
        <time>2018-02-05T15:38:39Z</time>
      </trkpt>
      <trkpt lat="48.31274" lon="6.79058">
        <ele>414.47</ele>
        <time>2018-02-05T15:39:06Z</time>
      </trkpt>
      <trkpt lat="48.31269" lon="6.79064">
        <ele>413.5</ele>
        <time>2018-02-05T15:39:36Z</time>
      </trkpt>
      <trkpt lat="48.31278" lon="6.79066">
        <ele>417.35</ele>
        <time>2018-02-05T15:39:50Z</time>
      </trkpt>
      <trkpt lat="48.31272" lon="6.79057">
        <ele>416.87</ele>
        <time>2018-02-05T15:40:10Z</time>
      </trkpt>
      <trkpt lat="48.31273" lon="6.7906">
        <ele>416.39</ele>
        <time>2018-02-05T15:40:34Z</time>
      </trkpt>
      <trkpt lat="48.31269" lon="6.79056">
        <ele>416.87</ele>
        <time>2018-02-05T15:41:01Z</time>
      </trkpt>
      <trkpt lat="48.31266" lon="6.79058">
        <ele>418.79</ele>
        <time>2018-02-05T15:41:04Z</time>
      </trkpt>
      <trkpt lat="48.3126" lon="6.79074">
        <ele>423.6</ele>
        <time>2018-02-05T15:41:18Z</time>
      </trkpt>
      <trkpt lat="48.31258" lon="6.7909">
        <ele>423.12</ele>
        <time>2018-02-05T15:41:31Z</time>
      </trkpt>
      <trkpt lat="48.31257" lon="6.79112">
        <ele>423.6</ele>
        <time>2018-02-05T15:41:45Z</time>
      </trkpt>
      <trkpt lat="48.31257" lon="6.79134">
        <ele>425.04</ele>
        <time>2018-02-05T15:41:59Z</time>
      </trkpt>
      <trkpt lat="48.31257" lon="6.79152">
        <ele>424.56</ele>
        <time>2018-02-05T15:42:12Z</time>
      </trkpt>
      <trkpt lat="48.31256" lon="6.79165">
        <ele>423.6</ele>
        <time>2018-02-05T15:42:22Z</time>
      </trkpt>
      <trkpt lat="48.31255" lon="6.79181">
        <ele>418.79</ele>
        <time>2018-02-05T15:42:35Z</time>
      </trkpt>
      <trkpt lat="48.31247" lon="6.79191">
        <ele>413.5</ele>
        <time>2018-02-05T15:42:49Z</time>
      </trkpt>
      <trkpt lat="48.31243" lon="6.79184">
        <ele>413.5</ele>
        <time>2018-02-05T15:42:56Z</time>
      </trkpt>
      <trkpt lat="48.31239" lon="6.79181">
        <ele>413.02</ele>
        <time>2018-02-05T15:43:00Z</time>
      </trkpt>
      <trkpt lat="48.31228" lon="6.79167">
        <ele>412.54</ele>
        <time>2018-02-05T15:43:10Z</time>
      </trkpt>
      <trkpt lat="48.31217" lon="6.79158">
        <ele>413.02</ele>
        <time>2018-02-05T15:43:23Z</time>
      </trkpt>
      <trkpt lat="48.31208" lon="6.79153">
        <ele>414.95</ele>
        <time>2018-02-05T15:43:28Z</time>
      </trkpt>
      <trkpt lat="48.31192" lon="6.79151">
        <ele>415.43</ele>
        <time>2018-02-05T15:43:41Z</time>
      </trkpt>
      <trkpt lat="48.31173" lon="6.7915">
        <ele>417.35</ele>
        <time>2018-02-05T15:43:58Z</time>
      </trkpt>
      <trkpt lat="48.31169" lon="6.79152">
        <ele>417.83</ele>
        <time>2018-02-05T15:44:01Z</time>
      </trkpt>
      <trkpt lat="48.31153" lon="6.79152">
        <ele>418.31</ele>
        <time>2018-02-05T15:44:15Z</time>
      </trkpt>
      <trkpt lat="48.31138" lon="6.79158">
        <ele>417.35</ele>
        <time>2018-02-05T15:44:30Z</time>
      </trkpt>
      <trkpt lat="48.31134" lon="6.79163">
        <ele>418.31</ele>
        <time>2018-02-05T15:44:36Z</time>
      </trkpt>
      <trkpt lat="48.31124" lon="6.79178">
        <ele>411.58</ele>
        <time>2018-02-05T15:44:52Z</time>
      </trkpt>
      <trkpt lat="48.31119" lon="6.79197">
        <ele>401.97</ele>
        <time>2018-02-05T15:45:09Z</time>
      </trkpt>
      <trkpt lat="48.31118" lon="6.79203">
        <ele>401.01</ele>
        <time>2018-02-05T15:45:12Z</time>
      </trkpt>
      <trkpt lat="48.31111" lon="6.79229">
        <ele>406.29</ele>
        <time>2018-02-05T15:45:27Z</time>
      </trkpt>
      <trkpt lat="48.31111" lon="6.79238">
        <ele>407.26</ele>
        <time>2018-02-05T15:45:33Z</time>
      </trkpt>
      <trkpt lat="48.31108" lon="6.79254">
        <ele>407.26</ele>
        <time>2018-02-05T15:45:46Z</time>
      </trkpt>
      <trkpt lat="48.311" lon="6.79273">
        <ele>408.22</ele>
        <time>2018-02-05T15:46:00Z</time>
      </trkpt>
      <trkpt lat="48.31087" lon="6.79296">
        <ele>410.62</ele>
        <time>2018-02-05T15:46:16Z</time>
      </trkpt>
      <trkpt lat="48.31085" lon="6.793">
        <ele>410.62</ele>
        <time>2018-02-05T15:46:19Z</time>
      </trkpt>
      <trkpt lat="48.31075" lon="6.79319">
        <ele>410.62</ele>
        <time>2018-02-05T15:46:34Z</time>
      </trkpt>
      <trkpt lat="48.31065" lon="6.79339">
        <ele>410.14</ele>
        <time>2018-02-05T15:46:50Z</time>
      </trkpt>
      <trkpt lat="48.31059" lon="6.7935">
        <ele>409.66</ele>
        <time>2018-02-05T15:46:58Z</time>
      </trkpt>
      <trkpt lat="48.31053" lon="6.79358">
        <ele>409.66</ele>
        <time>2018-02-05T15:47:05Z</time>
      </trkpt>
      <trkpt lat="48.31049" lon="6.79363">
        <ele>409.18</ele>
        <time>2018-02-05T15:47:10Z</time>
      </trkpt>
      <trkpt lat="48.31036" lon="6.79379">
        <ele>407.74</ele>
        <time>2018-02-05T15:47:26Z</time>
      </trkpt>
      <trkpt lat="48.31025" lon="6.79395">
        <ele>406.77</ele>
        <time>2018-02-05T15:47:42Z</time>
      </trkpt>
      <trkpt lat="48.3102" lon="6.79401">
        <ele>408.7</ele>
        <time>2018-02-05T15:47:46Z</time>
      </trkpt>
      <trkpt lat="48.31007" lon="6.79416">
        <ele>405.81</ele>
        <time>2018-02-05T15:48:03Z</time>
      </trkpt>
      <trkpt lat="48.30997" lon="6.79428">
        <ele>404.37</ele>
        <time>2018-02-05T15:48:18Z</time>
      </trkpt>
      <trkpt lat="48.30989" lon="6.79445">
        <ele>403.89</ele>
        <time>2018-02-05T15:48:33Z</time>
      </trkpt>
      <trkpt lat="48.30986" lon="6.79453">
        <ele>405.33</ele>
        <time>2018-02-05T15:48:37Z</time>
      </trkpt>
      <trkpt lat="48.30979" lon="6.79465">
        <ele>408.22</ele>
        <time>2018-02-05T15:48:45Z</time>
      </trkpt>
      <trkpt lat="48.30973" lon="6.79472">
        <ele>413.5</ele>
        <time>2018-02-05T15:48:55Z</time>
      </trkpt>
      <trkpt lat="48.3097" lon="6.79491">
        <ele>413.5</ele>
        <time>2018-02-05T15:49:10Z</time>
      </trkpt>
      <trkpt lat="48.30962" lon="6.79511">
        <ele>413.5</ele>
        <time>2018-02-05T15:49:22Z</time>
      </trkpt>
      <trkpt lat="48.30955" lon="6.7953">
        <ele>415.91</ele>
        <time>2018-02-05T15:49:34Z</time>
      </trkpt>
      <trkpt lat="48.30953" lon="6.79539">
        <ele>415.91</ele>
        <time>2018-02-05T15:49:41Z</time>
      </trkpt>
      <trkpt lat="48.30952" lon="6.79547">
        <ele>413.98</ele>
        <time>2018-02-05T15:49:47Z</time>
      </trkpt>
      <trkpt lat="48.30951" lon="6.79551">
        <ele>412.54</ele>
        <time>2018-02-05T15:49:50Z</time>
      </trkpt>
      <trkpt lat="48.30944" lon="6.79572">
        <ele>413.02</ele>
        <time>2018-02-05T15:50:04Z</time>
      </trkpt>
      <trkpt lat="48.30937" lon="6.79589">
        <ele>413.98</ele>
        <time>2018-02-05T15:50:15Z</time>
      </trkpt>
      <trkpt lat="48.30942" lon="6.79598">
        <ele>410.62</ele>
        <time>2018-02-05T15:50:39Z</time>
      </trkpt>
      <trkpt lat="48.30941" lon="6.79585">
        <ele>410.14</ele>
        <time>2018-02-05T15:51:20Z</time>
      </trkpt>
      <trkpt lat="48.30936" lon="6.7959">
        <ele>412.06</ele>
        <time>2018-02-05T15:51:24Z</time>
      </trkpt>
      <trkpt lat="48.3093" lon="6.79604">
        <ele>414.95</ele>
        <time>2018-02-05T15:51:33Z</time>
      </trkpt>
      <trkpt lat="48.30925" lon="6.79614">
        <ele>410.62</ele>
        <time>2018-02-05T15:51:42Z</time>
      </trkpt>
      <trkpt lat="48.30924" lon="6.79625">
        <ele>403.41</ele>
        <time>2018-02-05T15:51:52Z</time>
      </trkpt>
      <trkpt lat="48.30923" lon="6.79629">
        <ele>400.53</ele>
        <time>2018-02-05T15:51:56Z</time>
      </trkpt>
      <trkpt lat="48.30921" lon="6.79637">
        <ele>397.16</ele>
        <time>2018-02-05T15:52:01Z</time>
      </trkpt>
      <trkpt lat="48.30918" lon="6.79644">
        <ele>395.24</ele>
        <time>2018-02-05T15:52:06Z</time>
      </trkpt>
      <trkpt lat="48.30918" lon="6.79649">
        <ele>395.72</ele>
        <time>2018-02-05T15:52:08Z</time>
      </trkpt>
      <trkpt lat="48.30911" lon="6.79668">
        <ele>396.2</ele>
        <time>2018-02-05T15:52:19Z</time>
      </trkpt>
      <trkpt lat="48.30907" lon="6.79678">
        <ele>398.12</ele>
        <time>2018-02-05T15:52:24Z</time>
      </trkpt>
      <trkpt lat="48.30898" lon="6.79699">
        <ele>409.66</ele>
        <time>2018-02-05T15:52:37Z</time>
      </trkpt>
      <trkpt lat="48.30896" lon="6.79709">
        <ele>412.54</ele>
        <time>2018-02-05T15:52:52Z</time>
      </trkpt>
      <trkpt lat="48.30892" lon="6.79722">
        <ele>413.02</ele>
        <time>2018-02-05T15:53:04Z</time>
      </trkpt>
      <trkpt lat="48.30885" lon="6.79739">
        <ele>413.98</ele>
        <time>2018-02-05T15:53:17Z</time>
      </trkpt>
      <trkpt lat="48.30883" lon="6.7975">
        <ele>413.02</ele>
        <time>2018-02-05T15:53:22Z</time>
      </trkpt>
      <trkpt lat="48.30884" lon="6.79753">
        <ele>412.54</ele>
        <time>2018-02-05T15:53:24Z</time>
      </trkpt>
      <trkpt lat="48.30875" lon="6.79773">
        <ele>411.1</ele>
        <time>2018-02-05T15:53:38Z</time>
      </trkpt>
      <trkpt lat="48.30872" lon="6.79777">
        <ele>411.58</ele>
        <time>2018-02-05T15:53:42Z</time>
      </trkpt>
      <trkpt lat="48.3087" lon="6.79781">
        <ele>411.58</ele>
        <time>2018-02-05T15:53:44Z</time>
      </trkpt>
      <trkpt lat="48.30864" lon="6.79805">
        <ele>411.58</ele>
        <time>2018-02-05T15:53:57Z</time>
      </trkpt>
      <trkpt lat="48.30864" lon="6.79812">
        <ele>412.06</ele>
        <time>2018-02-05T15:54:01Z</time>
      </trkpt>
      <trkpt lat="48.30863" lon="6.79817">
        <ele>412.54</ele>
        <time>2018-02-05T15:54:03Z</time>
      </trkpt>
      <trkpt lat="48.30856" lon="6.79832">
        <ele>406.77</ele>
        <time>2018-02-05T15:54:15Z</time>
      </trkpt>
      <trkpt lat="48.30852" lon="6.79853">
        <ele>398.12</ele>
        <time>2018-02-05T15:54:29Z</time>
      </trkpt>
      <trkpt lat="48.30843" lon="6.79864">
        <ele>390.91</ele>
        <time>2018-02-05T15:54:42Z</time>
      </trkpt>
      <trkpt lat="48.30842" lon="6.79865">
        <ele>389.47</ele>
        <time>2018-02-05T15:54:44Z</time>
      </trkpt>
      <trkpt lat="48.30834" lon="6.79878">
        <ele>384.66</ele>
        <time>2018-02-05T15:54:55Z</time>
      </trkpt>
      <trkpt lat="48.30832" lon="6.79882">
        <ele>384.66</ele>
        <time>2018-02-05T15:54:58Z</time>
      </trkpt>
      <trkpt lat="48.30823" lon="6.79902">
        <ele>387.07</ele>
        <time>2018-02-05T15:55:12Z</time>
      </trkpt>
      <trkpt lat="48.3082" lon="6.7992">
        <ele>392.84</ele>
        <time>2018-02-05T15:55:25Z</time>
      </trkpt>
      <trkpt lat="48.30818" lon="6.79925">
        <ele>396.68</ele>
        <time>2018-02-05T15:55:50Z</time>
      </trkpt>
      <trkpt lat="48.30817" lon="6.7993">
        <ele>395.72</ele>
        <time>2018-02-05T15:56:11Z</time>
      </trkpt>
      <trkpt lat="48.30818" lon="6.79922">
        <ele>396.2</ele>
        <time>2018-02-05T15:56:28Z</time>
      </trkpt>
      <trkpt lat="48.30817" lon="6.79921">
        <ele>395.24</ele>
        <time>2018-02-05T15:56:50Z</time>
      </trkpt>
      <trkpt lat="48.30813" lon="6.79936">
        <ele>409.18</ele>
        <time>2018-02-05T15:57:13Z</time>
      </trkpt>
      <trkpt lat="48.30809" lon="6.79936">
        <ele>408.7</ele>
        <time>2018-02-05T15:57:33Z</time>
      </trkpt>
      <trkpt lat="48.30803" lon="6.79938">
        <ele>406.29</ele>
        <time>2018-02-05T15:57:50Z</time>
      </trkpt>
      <trkpt lat="48.3079" lon="6.79925">
        <ele>408.7</ele>
        <time>2018-02-05T15:58:04Z</time>
      </trkpt>
      <trkpt lat="48.30784" lon="6.79923">
        <ele>409.66</ele>
        <time>2018-02-05T15:58:13Z</time>
      </trkpt>
      <trkpt lat="48.30776" lon="6.79928">
        <ele>411.1</ele>
        <time>2018-02-05T15:58:29Z</time>
      </trkpt>
      <trkpt lat="48.30759" lon="6.79929">
        <ele>413.5</ele>
        <time>2018-02-05T15:58:44Z</time>
      </trkpt>
      <trkpt lat="48.30745" lon="6.79925">
        <ele>412.06</ele>
        <time>2018-02-05T15:59:00Z</time>
      </trkpt>
      <trkpt lat="48.30731" lon="6.79915">
        <ele>404.85</ele>
        <time>2018-02-05T15:59:15Z</time>
      </trkpt>
      <trkpt lat="48.30716" lon="6.7991">
        <ele>397.64</ele>
        <time>2018-02-05T15:59:31Z</time>
      </trkpt>
      <trkpt lat="48.30698" lon="6.79907">
        <ele>395.72</ele>
        <time>2018-02-05T15:59:47Z</time>
      </trkpt>
      <trkpt lat="48.30694" lon="6.79907">
        <ele>390.43</ele>
        <time>2018-02-05T16:00:03Z</time>
      </trkpt>
      <trkpt lat="48.30688" lon="6.79901">
        <ele>391.39</ele>
        <time>2018-02-05T16:00:20Z</time>
      </trkpt>
      <trkpt lat="48.30675" lon="6.79902">
        <ele>396.2</ele>
        <time>2018-02-05T16:00:37Z</time>
      </trkpt>
      <trkpt lat="48.30663" lon="6.799">
        <ele>394.76</ele>
        <time>2018-02-05T16:00:50Z</time>
      </trkpt>
      <trkpt lat="48.30645" lon="6.79905">
        <ele>392.84</ele>
        <time>2018-02-05T16:01:05Z</time>
      </trkpt>
      <trkpt lat="48.3063" lon="6.79917">
        <ele>387.07</ele>
        <time>2018-02-05T16:01:22Z</time>
      </trkpt>
      <trkpt lat="48.30617" lon="6.79928">
        <ele>385.15</ele>
        <time>2018-02-05T16:01:36Z</time>
      </trkpt>
      <trkpt lat="48.30604" lon="6.79938">
        <ele>382.26</ele>
        <time>2018-02-05T16:01:49Z</time>
      </trkpt>
      <trkpt lat="48.3059" lon="6.79949">
        <ele>380.34</ele>
        <time>2018-02-05T16:02:01Z</time>
      </trkpt>
      <trkpt lat="48.30577" lon="6.79954">
        <ele>381.3</ele>
        <time>2018-02-05T16:02:16Z</time>
      </trkpt>
      <trkpt lat="48.30562" lon="6.79957">
        <ele>378.42</ele>
        <time>2018-02-05T16:02:30Z</time>
      </trkpt>
      <trkpt lat="48.30551" lon="6.79959">
        <ele>377.94</ele>
        <time>2018-02-05T16:02:42Z</time>
      </trkpt>
      <trkpt lat="48.30543" lon="6.79956">
        <ele>381.3</ele>
        <time>2018-02-05T16:02:48Z</time>
      </trkpt>
      <trkpt lat="48.30534" lon="6.79956">
        <ele>383.22</ele>
        <time>2018-02-05T16:02:55Z</time>
      </trkpt>
      <trkpt lat="48.30529" lon="6.79954">
        <ele>384.66</ele>
        <time>2018-02-05T16:02:59Z</time>
      </trkpt>
      <trkpt lat="48.30522" lon="6.79955">
        <ele>386.11</ele>
        <time>2018-02-05T16:03:04Z</time>
      </trkpt>
      <trkpt lat="48.30507" lon="6.79959">
        <ele>392.36</ele>
        <time>2018-02-05T16:03:16Z</time>
      </trkpt>
      <trkpt lat="48.30506" lon="6.7996">
        <ele>392.36</ele>
        <time>2018-02-05T16:03:17Z</time>
      </trkpt>
      <trkpt lat="48.30499" lon="6.79962">
        <ele>393.8</ele>
        <time>2018-02-05T16:03:23Z</time>
      </trkpt>
      <trkpt lat="48.30494" lon="6.79963">
        <ele>394.76</ele>
        <time>2018-02-05T16:03:27Z</time>
      </trkpt>
      <trkpt lat="48.3049" lon="6.79963">
        <ele>395.72</ele>
        <time>2018-02-05T16:03:30Z</time>
      </trkpt>
      <trkpt lat="48.30487" lon="6.79964">
        <ele>394.76</ele>
        <time>2018-02-05T16:03:33Z</time>
      </trkpt>
      <trkpt lat="48.30483" lon="6.79963">
        <ele>393.8</ele>
        <time>2018-02-05T16:03:37Z</time>
      </trkpt>
      <trkpt lat="48.3048" lon="6.79963">
        <ele>393.8</ele>
        <time>2018-02-05T16:03:40Z</time>
      </trkpt>
      <trkpt lat="48.30477" lon="6.79957">
        <ele>393.32</ele>
        <time>2018-02-05T16:03:51Z</time>
      </trkpt>
      <trkpt lat="48.30474" lon="6.79956">
        <ele>393.32</ele>
        <time>2018-02-05T16:04:13Z</time>
      </trkpt>
      <trkpt lat="48.30471" lon="6.79946">
        <ele>392.84</ele>
        <time>2018-02-05T16:04:28Z</time>
      </trkpt>
      <trkpt lat="48.30463" lon="6.79936">
        <ele>391.39</ele>
        <time>2018-02-05T16:04:40Z</time>
      </trkpt>
      <trkpt lat="48.30461" lon="6.79932">
        <ele>390.91</ele>
        <time>2018-02-05T16:04:44Z</time>
      </trkpt>
      <trkpt lat="48.30457" lon="6.79916">
        <ele>392.36</ele>
        <time>2018-02-05T16:04:53Z</time>
      </trkpt>
      <trkpt lat="48.30452" lon="6.79906">
        <ele>393.8</ele>
        <time>2018-02-05T16:05:00Z</time>
      </trkpt>
      <trkpt lat="48.3045" lon="6.79899">
        <ele>395.24</ele>
        <time>2018-02-05T16:05:13Z</time>
      </trkpt>
      <trkpt lat="48.30447" lon="6.79888">
        <ele>397.16</ele>
        <time>2018-02-05T16:05:30Z</time>
      </trkpt>
      <trkpt lat="48.30443" lon="6.79867">
        <ele>393.32</ele>
        <time>2018-02-05T16:05:43Z</time>
      </trkpt>
      <trkpt lat="48.3044" lon="6.79835">
        <ele>392.84</ele>
        <time>2018-02-05T16:05:58Z</time>
      </trkpt>
      <trkpt lat="48.3044" lon="6.79834">
        <ele>393.32</ele>
        <time>2018-02-05T16:05:59Z</time>
      </trkpt>
      <trkpt lat="48.30441" lon="6.79825">
        <ele>392.84</ele>
        <time>2018-02-05T16:06:13Z</time>
      </trkpt>
      <trkpt lat="48.30437" lon="6.79797">
        <ele>391.39</ele>
        <time>2018-02-05T16:06:29Z</time>
      </trkpt>
      <trkpt lat="48.30437" lon="6.79786">
        <ele>390.91</ele>
        <time>2018-02-05T16:06:34Z</time>
      </trkpt>
      <trkpt lat="48.30438" lon="6.79763">
        <ele>392.84</ele>
        <time>2018-02-05T16:06:46Z</time>
      </trkpt>
      <trkpt lat="48.30436" lon="6.79756">
        <ele>392.36</ele>
        <time>2018-02-05T16:06:50Z</time>
      </trkpt>
      <trkpt lat="48.30439" lon="6.79733">
        <ele>391.39</ele>
        <time>2018-02-05T16:07:02Z</time>
      </trkpt>
      <trkpt lat="48.3044" lon="6.79721">
        <ele>391.87</ele>
        <time>2018-02-05T16:07:09Z</time>
      </trkpt>
      <trkpt lat="48.30439" lon="6.79704">
        <ele>391.39</ele>
        <time>2018-02-05T16:07:23Z</time>
      </trkpt>
      <trkpt lat="48.30446" lon="6.79646">
        <ele>390.43</ele>
        <time>2018-02-05T16:07:46Z</time>
      </trkpt>
      <trkpt lat="48.30446" lon="6.79607">
        <ele>391.39</ele>
        <time>2018-02-05T16:08:09Z</time>
      </trkpt>
      <trkpt lat="48.30432" lon="6.79585">
        <ele>393.32</ele>
        <time>2018-02-05T16:08:28Z</time>
      </trkpt>
      <trkpt lat="48.30418" lon="6.79567">
        <ele>395.24</ele>
        <time>2018-02-05T16:08:44Z</time>
      </trkpt>
      <trkpt lat="48.30405" lon="6.79554">
        <ele>397.16</ele>
        <time>2018-02-05T16:08:57Z</time>
      </trkpt>
      <trkpt lat="48.30401" lon="6.79549">
        <ele>399.08</ele>
        <time>2018-02-05T16:09:01Z</time>
      </trkpt>
      <trkpt lat="48.30386" lon="6.79544">
        <ele>399.57</ele>
        <time>2018-02-05T16:09:16Z</time>
      </trkpt>
      <trkpt lat="48.30366" lon="6.79544">
        <ele>399.57</ele>
        <time>2018-02-05T16:09:34Z</time>
      </trkpt>
      <trkpt lat="48.30349" lon="6.79543">
        <ele>398.6</ele>
        <time>2018-02-05T16:09:51Z</time>
      </trkpt>
      <trkpt lat="48.30333" lon="6.79544">
        <ele>398.6</ele>
        <time>2018-02-05T16:10:08Z</time>
      </trkpt>
      <trkpt lat="48.30317" lon="6.79541">
        <ele>398.6</ele>
        <time>2018-02-05T16:10:24Z</time>
      </trkpt>
      <trkpt lat="48.30304" lon="6.79542">
        <ele>398.12</ele>
        <time>2018-02-05T16:10:38Z</time>
      </trkpt>
      <trkpt lat="48.3029" lon="6.79538">
        <ele>394.76</ele>
        <time>2018-02-05T16:10:55Z</time>
      </trkpt>
      <trkpt lat="48.30271" lon="6.79545">
        <ele>404.37</ele>
        <time>2018-02-05T16:11:15Z</time>
      </trkpt>
      <trkpt lat="48.30269" lon="6.79544">
        <ele>411.58</ele>
        <time>2018-02-05T16:11:28Z</time>
      </trkpt>
      <trkpt lat="48.30266" lon="6.79544">
        <ele>411.58</ele>
        <time>2018-02-05T16:11:45Z</time>
      </trkpt>
      <trkpt lat="48.30268" lon="6.79544">
        <ele>413.5</ele>
        <time>2018-02-05T16:11:57Z</time>
      </trkpt>
      <trkpt lat="48.30271" lon="6.79541">
        <ele>414.47</ele>
        <time>2018-02-05T16:12:14Z</time>
      </trkpt>
      <trkpt lat="48.30269" lon="6.79544">
        <ele>414.95</ele>
        <time>2018-02-05T16:12:23Z</time>
      </trkpt>
      <trkpt lat="48.30271" lon="6.79545">
        <ele>415.43</ele>
        <time>2018-02-05T16:12:41Z</time>
      </trkpt>
      <trkpt lat="48.3027" lon="6.79546">
        <ele>417.83</ele>
        <time>2018-02-05T16:12:57Z</time>
      </trkpt>
      <trkpt lat="48.30271" lon="6.79547">
        <ele>419.75</ele>
        <time>2018-02-05T16:13:15Z</time>
      </trkpt>
      <trkpt lat="48.30273" lon="6.79549">
        <ele>420.23</ele>
        <time>2018-02-05T16:13:32Z</time>
      </trkpt>
      <trkpt lat="48.30272" lon="6.7955">
        <ele>420.71</ele>
        <time>2018-02-05T16:13:52Z</time>
      </trkpt>
      <trkpt lat="48.30273" lon="6.79552">
        <ele>420.23</ele>
        <time>2018-02-05T16:13:55Z</time>
      </trkpt>
      <trkpt lat="48.30274" lon="6.79557">
        <ele>419.27</ele>
        <time>2018-02-05T16:13:58Z</time>
      </trkpt>
      <trkpt lat="48.30275" lon="6.79572">
        <ele>413.98</ele>
        <time>2018-02-05T16:14:09Z</time>
      </trkpt>
      <trkpt lat="48.30277" lon="6.7958">
        <ele>413.02</ele>
        <time>2018-02-05T16:14:15Z</time>
      </trkpt>
      <trkpt lat="48.30278" lon="6.79596">
        <ele>412.06</ele>
        <time>2018-02-05T16:14:27Z</time>
      </trkpt>
      <trkpt lat="48.3028" lon="6.796">
        <ele>412.54</ele>
        <time>2018-02-05T16:14:31Z</time>
      </trkpt>
      <trkpt lat="48.30281" lon="6.79606">
        <ele>411.58</ele>
        <time>2018-02-05T16:14:35Z</time>
      </trkpt>
      <trkpt lat="48.30281" lon="6.79614">
        <ele>410.14</ele>
        <time>2018-02-05T16:14:41Z</time>
      </trkpt>
      <trkpt lat="48.30283" lon="6.79624">
        <ele>408.22</ele>
        <time>2018-02-05T16:14:47Z</time>
      </trkpt>
      <trkpt lat="48.30286" lon="6.79638">
        <ele>410.14</ele>
        <time>2018-02-05T16:14:58Z</time>
      </trkpt>
      <trkpt lat="48.3029" lon="6.79651">
        <ele>409.66</ele>
        <time>2018-02-05T16:15:06Z</time>
      </trkpt>
      <trkpt lat="48.30293" lon="6.79663">
        <ele>407.74</ele>
        <time>2018-02-05T16:15:13Z</time>
      </trkpt>
      <trkpt lat="48.30295" lon="6.79685">
        <ele>403.89</ele>
        <time>2018-02-05T16:15:25Z</time>
      </trkpt>
      <trkpt lat="48.30297" lon="6.79699">
        <ele>402.93</ele>
        <time>2018-02-05T16:15:33Z</time>
      </trkpt>
      <trkpt lat="48.30297" lon="6.79705">
        <ele>402.45</ele>
        <time>2018-02-05T16:15:36Z</time>
      </trkpt>
      <trkpt lat="48.30297" lon="6.79708">
        <ele>401.97</ele>
        <time>2018-02-05T16:15:38Z</time>
      </trkpt>
      <trkpt lat="48.30298" lon="6.79714">
        <ele>400.53</ele>
        <time>2018-02-05T16:15:42Z</time>
      </trkpt>
      <trkpt lat="48.30301" lon="6.79726">
        <ele>399.57</ele>
        <time>2018-02-05T16:15:50Z</time>
      </trkpt>
      <trkpt lat="48.30305" lon="6.7974">
        <ele>397.64</ele>
        <time>2018-02-05T16:16:00Z</time>
      </trkpt>
      <trkpt lat="48.30311" lon="6.79751">
        <ele>396.2</ele>
        <time>2018-02-05T16:16:10Z</time>
      </trkpt>
      <trkpt lat="48.30311" lon="6.79758">
        <ele>396.68</ele>
        <time>2018-02-05T16:16:14Z</time>
      </trkpt>
      <trkpt lat="48.30311" lon="6.79763">
        <ele>396.68</ele>
        <time>2018-02-05T16:16:16Z</time>
      </trkpt>
      <trkpt lat="48.3031" lon="6.79768">
        <ele>396.68</ele>
        <time>2018-02-05T16:16:19Z</time>
      </trkpt>
      <trkpt lat="48.30311" lon="6.79776">
        <ele>396.2</ele>
        <time>2018-02-05T16:16:24Z</time>
      </trkpt>
      <trkpt lat="48.30313" lon="6.7979">
        <ele>394.28</ele>
        <time>2018-02-05T16:16:32Z</time>
      </trkpt>
      <trkpt lat="48.30312" lon="6.79798">
        <ele>393.32</ele>
        <time>2018-02-05T16:16:36Z</time>
      </trkpt>
      <trkpt lat="48.30311" lon="6.79804">
        <ele>392.84</ele>
        <time>2018-02-05T16:16:39Z</time>
      </trkpt>
      <trkpt lat="48.3031" lon="6.79821">
        <ele>391.87</ele>
        <time>2018-02-05T16:16:48Z</time>
      </trkpt>
      <trkpt lat="48.30307" lon="6.79834">
        <ele>392.84</ele>
        <time>2018-02-05T16:16:55Z</time>
      </trkpt>
      <trkpt lat="48.30307" lon="6.79842">
        <ele>392.84</ele>
        <time>2018-02-05T16:17:00Z</time>
      </trkpt>
      <trkpt lat="48.30305" lon="6.79859">
        <ele>393.8</ele>
        <time>2018-02-05T16:17:10Z</time>
      </trkpt>
      <trkpt lat="48.30305" lon="6.79881">
        <ele>392.84</ele>
        <time>2018-02-05T16:17:21Z</time>
      </trkpt>
      <trkpt lat="48.30306" lon="6.79898">
        <ele>394.28</ele>
        <time>2018-02-05T16:17:33Z</time>
      </trkpt>
      <trkpt lat="48.30309" lon="6.79919">
        <ele>393.32</ele>
        <time>2018-02-05T16:17:45Z</time>
      </trkpt>
      <trkpt lat="48.3031" lon="6.79922">
        <ele>393.8</ele>
        <time>2018-02-05T16:17:47Z</time>
      </trkpt>
      <trkpt lat="48.30313" lon="6.79939">
        <ele>391.87</ele>
        <time>2018-02-05T16:17:58Z</time>
      </trkpt>
      <trkpt lat="48.30313" lon="6.79945">
        <ele>391.39</ele>
        <time>2018-02-05T16:18:01Z</time>
      </trkpt>
      <trkpt lat="48.30316" lon="6.79956">
        <ele>390.91</ele>
        <time>2018-02-05T16:18:08Z</time>
      </trkpt>
      <trkpt lat="48.30319" lon="6.79975">
        <ele>388.03</ele>
        <time>2018-02-05T16:18:21Z</time>
      </trkpt>
      <trkpt lat="48.30322" lon="6.79984">
        <ele>386.59</ele>
        <time>2018-02-05T16:18:28Z</time>
      </trkpt>
      <trkpt lat="48.30324" lon="6.79988">
        <ele>386.11</ele>
        <time>2018-02-05T16:18:31Z</time>
      </trkpt>
      <trkpt lat="48.30324" lon="6.79995">
        <ele>385.15</ele>
        <time>2018-02-05T16:18:35Z</time>
      </trkpt>
      <trkpt lat="48.30326" lon="6.79998">
        <ele>384.66</ele>
        <time>2018-02-05T16:18:38Z</time>
      </trkpt>
      <trkpt lat="48.30333" lon="6.8001">
        <ele>388.51</ele>
        <time>2018-02-05T16:18:44Z</time>
      </trkpt>
      <trkpt lat="48.30336" lon="6.80018">
        <ele>391.39</ele>
        <time>2018-02-05T16:18:48Z</time>
      </trkpt>
      <trkpt lat="48.30338" lon="6.8002">
        <ele>391.87</ele>
        <time>2018-02-05T16:18:50Z</time>
      </trkpt>
      <trkpt lat="48.30343" lon="6.80027">
        <ele>394.28</ele>
        <time>2018-02-05T16:18:56Z</time>
      </trkpt>
      <trkpt lat="48.30345" lon="6.8004">
        <ele>396.2</ele>
        <time>2018-02-05T16:19:02Z</time>
      </trkpt>
      <trkpt lat="48.30347" lon="6.80054">
        <ele>397.64</ele>
        <time>2018-02-05T16:19:11Z</time>
      </trkpt>
      <trkpt lat="48.30347" lon="6.80063">
        <ele>397.16</ele>
        <time>2018-02-05T16:19:15Z</time>
      </trkpt>
      <trkpt lat="48.30348" lon="6.80073">
        <ele>399.08</ele>
        <time>2018-02-05T16:19:20Z</time>
      </trkpt>
      <trkpt lat="48.30349" lon="6.80078">
        <ele>400.53</ele>
        <time>2018-02-05T16:19:22Z</time>
      </trkpt>
      <trkpt lat="48.30349" lon="6.80082">
        <ele>401.01</ele>
        <time>2018-02-05T16:19:25Z</time>
      </trkpt>
      <trkpt lat="48.30351" lon="6.80103">
        <ele>402.45</ele>
        <time>2018-02-05T16:19:38Z</time>
      </trkpt>
      <trkpt lat="48.30349" lon="6.80106">
        <ele>404.85</ele>
        <time>2018-02-05T16:19:53Z</time>
      </trkpt>
    </trkseg>
  </trk>
</gpx>